Home > Products > Valid Products > MTR

000
SAUS46 KLOX 270015
MTRMWS
METAR KMWS 270000Z 25004G06KT 15/04 RMK SNOW DEPTH 3.00





000
SAUS46 KLOX 262355
MTR9L2
METAR K9L2 262355Z AUTO 24011KT 10SM CLR 22/01 A2992 RMK AO2 SLP123
T02220011 10239 20200 56016 TSNO $





000
SAUS46 KLOX 262354
MTRMWS
METAR KMWS 262345Z 24505G07KT 15/04 RMK SNOW DEPTH 3.00





000
SAUS46 KLOX 262349
MTRCQT
METAR KCQT 262347Z AUTO VRB03KT 10SM CLR 22/09 A2989 RMK AO2 SLP118
T02170089 10239 20206 58023





000
SAUS46 KLOX 262349
MTRSDB
METAR KSDB 262348Z AUTO 36012G25KT 10SM CLR 14/02 A3005 RMK AO2 PK
WND 34031/2315 SLP150 T01440017 10156 20094 56011





000
SAUS46 KLOX 262336
MTRMWS
METAR KMWS 262330Z 23500G00KT MM/04 RMK SNOW DEPTH 3.00





000
SAUS46 KLOX 262315
MTRMWS
METAR KMWS 262300Z 22502G05KT 15/05 RMK SNOW DEPTH 3.00





000
SAUS46 KLOX 262259
MTR9L2
METAR K9L2 262255Z AUTO 01004KT 10SM CLR 23/M03 A2992 RMK AO2 SLP125
T02331028 TSNO $





000
SAUS46 KLOX 262259
MTR9L2
METAR K9L2 262255Z AUTO 01004KT 10SM CLR 23/M03 A2992 RMK AO2 SLP125
T02331028 TSNO $





000
SAUS46 KLOX 262254
MTRMWS
METAR KMWS 262245Z 27002G03KT 16/04 RMK SNOW DEPTH 3.00





000
SAUS46 KLOX 262254
MTRMWS
METAR KMWS 262245Z 27002G03KT 16/04 RMK SNOW DEPTH 3.00





000
SAUS46 KLOX 262249
MTRSDB
METAR KSDB 262248Z AUTO 35016G26KT 10SM CLR 14/02 A3006 RMK AO2 PK
WND 35033/2154 SLP151 T01440022





000
SAUS46 KLOX 262249
MTRCQT
METAR KCQT 262247Z AUTO VRB03KT 10SM CLR 23/06 A2991 RMK AO2 SLP127
T02280056





000
SAUS46 KLOX 262236
MTRMWS
METAR KMWS 262230Z 23500G00KT MM/03 RMK SNOW DEPTH 2.00





000
SAUS46 KLOX 262236
MTRMWS
METAR KMWS 262230Z 23500G00KT MM/03 RMK SNOW DEPTH 2.00





000
SAUS46 KLOX 262215
MTRMWS
METAR KMWS 262200Z 17501G05KT 15/03 RMK SNOW DEPTH 3.00





000
SAUS46 KLOX 262159
MTR9L2
METAR K9L2 262155Z AUTO 33007KT 290V020 10SM CLR 23/M04 A2995 RMK
AO2 SLP134 T02281044 TSNO $





000
SAUS46 KLOX 262159
MTR9L2
METAR K9L2 262155Z AUTO 33007KT 290V020 10SM CLR 23/M04 A2995 RMK
AO2 SLP134 T02281044 TSNO $





000
SAUS46 KLOX 262154
MTRMWS
METAR KMWS 262145Z 28003G05KT 15/05 RMK SNOW DEPTH 3.00





000
SAUS46 KLOX 262149
MTRSDB
METAR KSDB 262148Z AUTO 34020G27KT 10SM FEW029 14/02 A3008 RMK AO2
PK WND 34030/2101 SLP159 T01440022





000
SAUS46 KLOX 262148
MTRCQT
METAR KCQT 262147Z AUTO 28008KT 10SM CLR 22/06 A2994 RMK AO2 SLP136
T02220056





000
SAUS46 KLOX 262136
MTRMWS
METAR KMWS 262130Z 23500G00KT MM/06 RMK SNOW DEPTH 3.00





000
SAUS46 KLOX 262115
MTRMWS
METAR KMWS 262100Z 24002G05KT 16/07 RMK SNOW DEPTH 3.00





000
SAUS46 KLOX 262059
MTR9L2
METAR K9L2 262055Z AUTO VRB04G14KT 10SM CLR 22/M06 A2997 RMK AO2
SLP138 T02171061 56012 TSNO $





000
SAUS46 KLOX 262059
MTR9L2
METAR K9L2 262055Z AUTO VRB04G14KT 10SM CLR 22/M06 A2997 RMK AO2
SLP138 T02171061 56012 TSNO $





000
SAUS46 KLOX 262054
MTRMWS
METAR KMWS 262045Z 25502G05KT 15/06 RMK SNOW DEPTH 3.00





000
SAUS46 KLOX 262054
MTRMWS
METAR KMWS 262045Z 25502G05KT 15/06 RMK SNOW DEPTH 3.00





000
SAUS46 KLOX 262049
MTRSDB
METAR KSDB 262048Z AUTO 35017G28KT 10SM CLR 14/03 A3009 RMK AO2 PK
WND 35028/2004 SLP161 T01440028 55003





000
SAUS46 KLOX 262048
MTRCQT
METAR KCQT 262047Z AUTO VRB04KT 10SM CLR 22/07 A2996 RMK AO2 SLP142
T02170072 56012





000
SAUS46 KLOX 262036
MTRMWS
METAR KMWS 262030Z 23500G00KT MM/05 RMK SNOW DEPTH 3.00





000
SAUS46 KLOX 262015
MTRMWS
METAR KMWS 262000Z 28502G03KT 14/06 RMK SNOW DEPTH 2.00





000
SAUS46 KLOX 261959
MTR9L2
METAR K9L2 261955Z AUTO 29008G15KT 10SM CLR 22/M06 A2997 RMK AO2
SLP140 T02171061 TSNO $





000
SAUS46 KLOX 261954
MTRMWS
METAR KMWS 261945Z 28003G06KT 13/06 RMK SNOW DEPTH 3.00





000
SAUS46 KLOX 261949
MTRSDB
METAR KSDB 261948Z AUTO 35017G27KT 330V030 10SM CLR 14/03 A3009 RMK
AO2 PK WND 35028/1935 SLP159 T01390033





000
SAUS46 KLOX 261949
MTRCQT
METAR KCQT 261947Z AUTO VRB05KT 10SM CLR 23/08 A2996 RMK AO2 SLP143
T02280083





000
SAUS46 KLOX 261949
MTRCQT
METAR KCQT 261947Z AUTO VRB05KT 10SM CLR 23/08 A2996 RMK AO2 SLP143
T02280083





000
SAUS46 KLOX 261949
MTRSDB
METAR KSDB 261948Z AUTO 35017G27KT 330V030 10SM CLR 14/03 A3009 RMK
AO2 PK WND 35028/1935 SLP159 T01390033





000
SAUS46 KLOX 261936
MTRMWS
METAR KMWS 261930Z 23500G00KT MM/07 RMK SNOW DEPTH 3.00





000
SAUS46 KLOX 261936
MTRMWS
METAR KMWS 261930Z 23500G00KT MM/07 RMK SNOW DEPTH 3.00





000
SAUS46 KLOX 261915
MTRMWS
METAR KMWS 261900Z 02502G04KT 15/02 RMK SNOW DEPTH 3.00





000
SAUS46 KLOX 261859
MTR9L2
METAR K9L2 261855Z AUTO 02008KT 10SM CLR 21/M06 A2999 RMK AO2 SLP147
T02111056 TSNO $





000
SAUS46 KLOX 261854
MTRMWS
METAR KMWS 261845Z 26500G02KT 13/04 RMK SNOW DEPTH 2.00





000
SAUS46 KLOX 261854
MTRMWS
METAR KMWS 261845Z 26500G02KT 13/04 RMK SNOW DEPTH 2.00





000
SAUS46 KLOX 261849
MTRSDB
METAR KSDB 261848Z AUTO 34017G26KT 10SM CLR 12/04 A3010 RMK AO2 PK
WND 34028/1832 SLP165 T01170044





000
SAUS46 KLOX 261849
MTRSDB
METAR KSDB 261848Z AUTO 34017G26KT 10SM CLR 12/04 A3010 RMK AO2 PK
WND 34028/1832 SLP165 T01170044





000
SAUS46 KLOX 261848
MTRCQT
METAR KCQT 261847Z AUTO VRB05KT 10SM CLR 23/09 A2997 RMK AO2 SLP148
T02330089





000
SAUS46 KLOX 261848
MTRCQT
METAR KCQT 261847Z AUTO VRB05KT 10SM CLR 23/09 A2997 RMK AO2 SLP148
T02330089





000
SAUS46 KLOX 261836
MTRMWS
METAR KMWS 261830Z 23500G00KT MM/04 RMK SNOW DEPTH 2.00





000
SAUS46 KLOX 261836
MTRMWS
METAR KMWS 261830Z 23500G00KT MM/04 RMK SNOW DEPTH 2.00





000
SAUS46 KLOX 261815
MTRMWS
METAR KMWS 261800Z 25001G04KT 12/03 RMK SNOW DEPTH 2.00





000
SAUS46 KLOX 261755
MTR9L2
METAR K9L2 261755Z AUTO 34008KT 10SM CLR 20/M04 A3000 RMK AO2 SLP153
T02001044 10200 20094 51005 TSNO $





000
SAUS46 KLOX 261755
MTR9L2
METAR K9L2 261755Z AUTO 34008KT 10SM CLR 20/M04 A3000 RMK AO2 SLP153
T02001044 10200 20094 51005 TSNO $





000
SAUS46 KLOX 261754
MTRMWS
METAR KMWS 261745Z 33501G04KT 13/03 RMK SNOW DEPTH 2.00





000
SAUS46 KLOX 261754
MTRMWS
METAR KMWS 261745Z 33501G04KT 13/03 RMK SNOW DEPTH 2.00





000
SAUS46 KLOX 261749
MTRSDB
METAR KSDB 261748Z AUTO 35014G20KT 10SM FEW020 09/03 A3010 RMK AO2
SLP171 T00940033 10094 20050 52017





000
SAUS46 KLOX 261749
MTRSDB
METAR KSDB 261748Z AUTO 35014G20KT 10SM FEW020 09/03 A3010 RMK AO2
SLP171 T00940033 10094 20050 52017





000
SAUS46 KLOX 261748
MTRCQT
METAR KCQT 261747Z AUTO 00000KT 10SM CLR 21/09 A2999 RMK AO2 SLP154
T02060089 10211 20122 50002





000
SAUS46 KLOX 261748
MTRCQT
METAR KCQT 261747Z AUTO 00000KT 10SM CLR 21/09 A2999 RMK AO2 SLP154
T02060089 10211 20122 50002





000
SAUS46 KLOX 261744
MTRSDB
SPECI KSDB 261742Z AUTO 36009G20KT 10SM SCT020 09/03 A3010 RMK AO2
T00890033





000
SAUS46 KLOX 261744
MTRSDB
SPECI KSDB 261742Z AUTO 36009G20KT 10SM SCT020 09/03 A3010 RMK AO2
T00890033





000
SAUS46 KLOX 261736
MTRMWS
METAR KMWS 261730Z 23500G00KT MM/02 RMK SNOW DEPTH 2.00





000
SAUS46 KLOX 261736
MTRMWS
METAR KMWS 261730Z 23500G00KT MM/02 RMK SNOW DEPTH 2.00





000
SAUS46 KLOX 261715
MTRMWS
METAR KMWS 261700Z 30002G04KT 12/02 RMK SNOW DEPTH 2.00





000
SAUS46 KLOX 261715
MTRMWS
METAR KMWS 261700Z 30002G04KT 12/02 RMK SNOW DEPTH 2.00





000
SAUS46 KLOX 261706
MTRSDB
SPECI KSDB 261705Z AUTO 35014G20KT 10SM BKN020 08/03 A3009 RMK AO2
T00780028





000
SAUS46 KLOX 261706
MTRSDB
SPECI KSDB 261705Z AUTO 35014G20KT 10SM BKN020 08/03 A3009 RMK AO2
T00780028





000
SAUS46 KLOX 261656
MTRSDB
SPECI KSDB 261655Z AUTO 36008G19KT 10SM SCT018 08/03 A3008 RMK AO2
T00780028





000
SAUS46 KLOX 261656
MTRSDB
SPECI KSDB 261655Z AUTO 36008G19KT 10SM SCT018 08/03 A3008 RMK AO2
T00780028





000
SAUS46 KLOX 261655 COR
MTR9L2
METAR K9L2 261655Z AUTO 04007KT 10SM CLR 18/M03 A3000 RMK AO2 SLP152
T01831028 TSNO $





000
SAUS46 KLOX 261655 COR
MTR9L2
METAR K9L2 261655Z AUTO 04007KT 10SM CLR 18/M03 A3000 RMK AO2 SLP152
T01831028 TSNO $





000
SAUS46 KLOX 261654
MTRMWS
METAR KMWS 261645Z 28002G04KT 11/01 RMK SNOW DEPTH 2.00





000
SAUS46 KLOX 261654
MTRMWS
METAR KMWS 261645Z 28002G04KT 11/01 RMK SNOW DEPTH 2.00





000
SAUS46 KLOX 261649
MTRSDB
METAR KSDB 261648Z AUTO 36011G21KT 10SM BKN018 07/02 A3008 RMK AO2
SLP167 T00720022





000
SAUS46 KLOX 261648
MTRCQT
METAR KCQT 261647Z AUTO VRB03KT 10SM CLR 19/10 A2999 RMK AO2 SLP155
T01890100





000
SAUS46 KLOX 261648
MTRCQT
METAR KCQT 261647Z AUTO VRB03KT 10SM CLR 19/10 A2999 RMK AO2 SLP155
T01890100





000
SAUS46 KLOX 261636
MTRMWS
METAR KMWS 261630Z 23500G00KT MM/01 RMK SNOW DEPTH 1.00





000
SAUS46 KLOX 261615
MTRMWS
METAR KMWS 261600Z 14001G04KT 08/M01 RMK SNOW DEPTH 1.00





000
SAUS46 KLOX 261604
MTRSDB
SPECI KSDB 261603Z AUTO 35014G23KT 10SM SCT007 SCT014 OVC020 06/03
A3006 RMK AO2 T00610028





000
SAUS46 KLOX 261604
MTRSDB
SPECI KSDB 261603Z AUTO 35014G23KT 10SM SCT007 SCT014 OVC020 06/03
A3006 RMK AO2 T00610028





000
SAUS46 KLOX 261559
MTR9L2
METAR K9L2 261555Z AUTO 34008KT 10SM CLR 17/M01 A2999 RMK AO2 SLP151
T01671006 TSNO $





000
SAUS46 KLOX 261554
MTRMWS
METAR KMWS 261545Z 25002G04KT 08/00 RMK SNOW DEPTH 1.00





000
SAUS46 KLOX 261549
MTRSDB
METAR KSDB 261548Z AUTO 35018G23KT 10SM BKN008 BKN016 OVC020 06/03
A3006 RMK AO2 CIG 006V012 SLP162 T00610028





000
SAUS46 KLOX 261549
MTRSDB
METAR KSDB 261548Z AUTO 35018G23KT 10SM BKN008 BKN016 OVC020 06/03
A3006 RMK AO2 CIG 006V012 SLP162 T00610028





000
SAUS46 KLOX 261548
MTRCQT
METAR KCQT 261547Z AUTO VRB03KT 10SM CLR 17/10 A2999 RMK AO2 SLP154
T01670100





000
SAUS46 KLOX 261548
MTRCQT
METAR KCQT 261547Z AUTO VRB03KT 10SM CLR 17/10 A2999 RMK AO2 SLP154
T01670100





000
SAUS46 KLOX 261536
MTRMWS
METAR KMWS 261530Z 23500G00KT MM/M01 RMK SNOW DEPTH 1.00





000
SAUS46 KLOX 261515
MTRMWS
METAR KMWS 261500Z 19001G02KT 08/00 RMK SNOW DEPTH 1.00





000
SAUS46 KLOX 261515
MTRMWS
METAR KMWS 261500Z 19001G02KT 08/00 RMK SNOW DEPTH 1.00





000
SAUS46 KLOX 261459
MTR9L2
METAR K9L2 261455Z AUTO 30006KT 10SM CLR 14/01 A2999 RMK AO2 SLP150
T01390006 51020 TSNO $





000
SAUS46 KLOX 261459
MTR9L2
METAR K9L2 261455Z AUTO 30006KT 10SM CLR 14/01 A2999 RMK AO2 SLP150
T01390006 51020 TSNO $





000
SAUS46 KLOX 261454
MTRMWS
METAR KMWS 261445Z 27501G03KT 06/M01 RMK SNOW DEPTH 1.00





000
SAUS46 KLOX 261449
MTRSDB
METAR KSDB 261448Z AUTO 36015G21KT 10SM OVC006 05/03 A3004 RMK AO2
SLP156 T00500028 53014





000
SAUS46 KLOX 261448
MTRCQT
METAR KCQT 261447Z AUTO 00000KT 10SM CLR 14/10 A2998 RMK AO2 SLP152
T01440100 51015





000
SAUS46 KLOX 261436
MTRMWS
METAR KMWS 261430Z 23500G00KT MM/00 RMK SNOW DEPTH 0.00





000
SAUS46 KLOX 261415
MTRMWS
METAR KMWS 261400Z 31501G03KT 04/M01 RMK SNOW DEPTH 0.00





000
SAUS46 KLOX 261415
MTRMWS
METAR KMWS 261400Z 31501G03KT 04/M01 RMK SNOW DEPTH 0.00





000
SAUS46 KLOX 261359
MTR9L2
METAR K9L2 261355Z AUTO 00000KT 10SM CLR 11/01 A2997 RMK AO2 SLP145
T01060006 TSNO $





000
SAUS46 KLOX 261359
MTR9L2
METAR K9L2 261355Z AUTO 00000KT 10SM CLR 11/01 A2997 RMK AO2 SLP145
T01060006 TSNO $





000
SAUS46 KLOX 261354
MTRMWS
METAR KMWS 261345Z 29001G04KT 03/00 RMK SNOW DEPTH 0.00





000
SAUS46 KLOX 261354
MTRMWS
METAR KMWS 261345Z 29001G04KT 03/00 RMK SNOW DEPTH 0.00





000
SAUS46 KLOX 261349
MTRSDB
METAR KSDB 261348Z AUTO 01005G18KT 10SM BKN005 OVC014 05/03 A3002
RMK AO2 CIG 004V010 SLP148 T00500028





000
SAUS46 KLOX 261348
MTRCQT
METAR KCQT 261347Z AUTO VRB03KT 10SM CLR 13/10 A2997 RMK AO2 SLP148
T01280100





000
SAUS46 KLOX 261348
MTRCQT
METAR KCQT 261347Z AUTO VRB03KT 10SM CLR 13/10 A2997 RMK AO2 SLP148
T01280100





000
SAUS46 KLOX 261336
MTRMWS
METAR KMWS 261330Z 23500G00KT MM/M01 RMK SNOW DEPTH 0.00





000
SAUS46 KLOX 261315
MTRMWS
METAR KMWS 261300Z 05513G0-99KT 02/M01 RMK SNOW DEPTH  M





000
SAUS46 KLOX 261315
MTRSDB
SPECI KSDB 261314Z AUTO 35010G20KT 10SM OVC005 06/03 A3002 RMK AO2
CIG 002V008 T00560033





000
SAUS46 KLOX 261259
MTR9L2
METAR K9L2 261255Z AUTO 29009KT 10SM CLR 10/01 A2994 RMK AO2 SLP139
T01000011 TSNO $





000
SAUS46 KLOX 261259
MTR9L2
METAR K9L2 261255Z AUTO 29009KT 10SM CLR 10/01 A2994 RMK AO2 SLP139
T01000011 TSNO $





000
SAUS46 KLOX 261254
MTRMWS
METAR KMWS 261245Z 14002G05KT 02/00 RMK SNOW DEPTH  M





000
SAUS46 KLOX 261254
MTRMWS
METAR KMWS 261245Z 14002G05KT 02/00 RMK SNOW DEPTH  M





000
SAUS46 KLOX 261249
MTRSDB
METAR KSDB 261248Z AUTO 36010KT 8SM OVC002 06/03 A3002 RMK AO2 CIG
002V007 SLP144 T00560033





000
SAUS46 KLOX 261249
MTRSDB
METAR KSDB 261248Z AUTO 36010KT 8SM OVC002 06/03 A3002 RMK AO2 CIG
002V007 SLP144 T00560033





000
SAUS46 KLOX 261248
MTRCQT
METAR KCQT 261247Z AUTO 00000KT 10SM CLR 13/10 A2995 RMK AO2 SLP142
T01280100





000
SAUS46 KLOX 261248
MTRCQT
METAR KCQT 261247Z AUTO 00000KT 10SM CLR 13/10 A2995 RMK AO2 SLP142
T01280100





000
SAUS46 KLOX 261236
MTRMWS
METAR KMWS 261230Z 23500G00KT MM/M01 RMK SNOW DEPTH  M





000
SAUS46 KLOX 261236
MTRMWS
METAR KMWS 261230Z 23500G00KT MM/M01 RMK SNOW DEPTH  M





000
SAUS46 KLOX 261215
MTRMWS
METAR KMWS 261200Z 13004G09KT 02/00 RMK SNOW DEPTH  M





000
SAUS46 KLOX 261215
MTRMWS
METAR KMWS 261200Z 13004G09KT 02/00 RMK SNOW DEPTH  M





000
SAUS46 KLOX 261155
MTR9L2
METAR K9L2 261155Z AUTO 31009KT 10SM CLR 11/01 A2992 RMK AO2 SLP129
T01060006 10133 20106 53013 TSNO $





000
SAUS46 KLOX 261155
MTR9L2
METAR K9L2 261155Z AUTO 31009KT 10SM CLR 11/01 A2992 RMK AO2 SLP129
T01060006 10133 20106 53013 TSNO $





000
SAUS46 KLOX 261154
MTRMWS
METAR KMWS 261145Z 14002G04KT 02/M01 RMK SNOW DEPTH  M





000
SAUS46 KLOX 261154
MTRMWS
METAR KMWS 261145Z 14002G04KT 02/M01 RMK SNOW DEPTH  M





000
SAUS46 KLOX 261150
MTRSDB
METAR KSDB 261148Z AUTO 6SM BR OVC002 06/04 A3000 RMK AO2 PK WND
35026/1108 SLP138 70008 T00560039 10078 20056 53002





000
SAUS46 KLOX 261150
MTRSDB
METAR KSDB 261148Z AUTO 6SM BR OVC002 06/04 A3000 RMK AO2 PK WND
35026/1108 SLP138 70008 T00560039 10078 20056 53002





000
SAUS46 KLOX 261148
MTRCQT
METAR KCQT 261147Z AUTO 12004KT 10SM CLR 13/10 A2994 RMK AO2 SLP137
T01330100 10150 20128 53006





000
SAUS46 KLOX 261148
MTRCQT
METAR KCQT 261147Z AUTO 12004KT 10SM CLR 13/10 A2994 RMK AO2 SLP137
T01330100 10150 20128 53006





000
SAUS46 KLOX 261138
MTRSDB
SPECI KSDB 261137Z AUTO 01005G16KT 3SM BR OVC002 06/04 A3000 RMK AO2
PK WND 35026/1108 T00610044





000
SAUS46 KLOX 261138
MTRSDB
SPECI KSDB 261137Z AUTO 01005G16KT 3SM BR OVC002 06/04 A3000 RMK AO2
PK WND 35026/1108 T00610044





000
SAUS46 KLOX 261136
MTRMWS
METAR KMWS 261130Z 23500G00KT MM/M01 RMK SNOW DEPTH  M





000
SAUS46 KLOX 261136
MTRMWS
METAR KMWS 261130Z 23500G00KT MM/M01 RMK SNOW DEPTH  M





000
SAUS46 KLOX 261135
MTRSDB
SPECI KSDB 261134Z AUTO 36009G17KT 1 1/2SM BR OVC002 06/04 A3000 RMK
AO2 PK WND 35026/1108 VIS 1/2V5 T00610039





000
SAUS46 KLOX 261135
MTRSDB
SPECI KSDB 261134Z AUTO 36009G17KT 1 1/2SM BR OVC002 06/04 A3000 RMK
AO2 PK WND 35026/1108 VIS 1/2V5 T00610039





000
SAUS46 KLOX 261127
MTRSDB
SPECI KSDB 261125Z AUTO 36013G19KT 3/4SM BR VV002 06/04 A3000 RMK
AO2 PK WND 35026/1108 T00610044





000
SAUS46 KLOX 261122
MTRSDB
SPECI KSDB 261121Z AUTO 36007G14KT 1 3/4SM BR OVC002 06/04 A3000 RMK
AO2 PK WND 35026/1108 T00610044





000
SAUS46 KLOX 261122
MTRSDB
SPECI KSDB 261121Z AUTO 36007G14KT 1 3/4SM BR OVC002 06/04 A3000 RMK
AO2 PK WND 35026/1108 T00610044





000
SAUS46 KLOX 261115
MTRMWS
METAR KMWS 261100Z 30504G06KT 03/00 RMK SNOW DEPTH  M





000
SAUS46 KLOX 261115
MTRMWS
METAR KMWS 261100Z 30504G06KT 03/00 RMK SNOW DEPTH  M





000
SAUS46 KLOX 261110
MTRSDB
SPECI KSDB 261109Z AUTO 36013G26KT 330V050 3SM BR OVC002 06/04 A3000
RMK AO2 PK WND 35026/1108 T00610039





000
SAUS46 KLOX 261110
MTRSDB
SPECI KSDB 261109Z AUTO 36013G26KT 330V050 3SM BR OVC002 06/04 A3000
RMK AO2 PK WND 35026/1108 T00610039





000
SAUS46 KLOX 261106
MTRSDB
SPECI KSDB 261105Z AUTO 36009G17KT 2 1/2SM BR OVC002 06/04 A3000 RMK
AO2 VIS 1 1/4V5 T00610044





000
SAUS46 KLOX 261106
MTRSDB
SPECI KSDB 261105Z AUTO 36009G17KT 2 1/2SM BR OVC002 06/04 A3000 RMK
AO2 VIS 1 1/4V5 T00610044





000
SAUS46 KLOX 261055
MTR9L2
METAR K9L2 261055Z AUTO 29013KT 10SM CLR 11/01 A2991 RMK AO2 SLP123
T01110011 TSNO $





000
SAUS46 KLOX 261055
MTR9L2
METAR K9L2 261055Z AUTO 29013KT 10SM CLR 11/01 A2991 RMK AO2 SLP123
T01110011 TSNO $





000
SAUS46 KLOX 261054
MTRMWS
METAR KMWS 261045Z 24001G04KT 03/00 RMK SNOW DEPTH  M





000
SAUS46 KLOX 261054
MTRMWS
METAR KMWS 261045Z 24001G04KT 03/00 RMK SNOW DEPTH  M





000
SAUS46 KLOX 261049
MTRSDB
METAR KSDB 261048Z AUTO VRB06KT 8SM OVC003 06/04 A3000 RMK AO2
SLP132 T00610044





000
SAUS46 KLOX 261049
MTRSDB
METAR KSDB 261048Z AUTO VRB06KT 8SM OVC003 06/04 A3000 RMK AO2
SLP132 T00610044





000
SAUS46 KLOX 261048
MTRCQT
METAR KCQT 261047Z AUTO 00000KT 10SM CLR 13/10 A2993 RMK AO2 SLP135
T01330100





000
SAUS46 KLOX 261048
MTRCQT
METAR KCQT 261047Z AUTO 00000KT 10SM CLR 13/10 A2993 RMK AO2 SLP135
T01330100





000
SAUS46 KLOX 261036
MTRMWS
METAR KMWS 261030Z 23500G00KT MM/00 RMK SNOW DEPTH  M





000
SAUS46 KLOX 261036
MTRMWS
METAR KMWS 261030Z 23500G00KT MM/00 RMK SNOW DEPTH  M





000
SAUS46 KLOX 261015
MTRMWS
METAR KMWS 261000Z 20002G07KT 02/M01 RMK SNOW DEPTH  M





000
SAUS46 KLOX 261004
MTRSDB
SPECI KSDB 261003Z AUTO 36014G21KT 10SM OVC004 06/04 A2999 RMK AO2
T00610039





000
SAUS46 KLOX 260955
MTR9L2
METAR K9L2 260955Z AUTO 29016KT 10SM CLR 12/01 A2989 RMK AO2 SLP117
T01220006 TSNO $





000
SAUS46 KLOX 260954
MTRMWS
METAR KMWS 260945Z 10504G06KT 03/00 RMK SNOW DEPTH  M





000
SAUS46 KLOX 260949
MTRSDB
METAR KSDB 260948Z AUTO 01008G20KT 10SM OVC005 07/04 A2999 RMK AO2
PK WND 34029/0906 SLP128 T00670044





000
SAUS46 KLOX 260949
MTRSDB
METAR KSDB 260948Z AUTO 01008G20KT 10SM OVC005 07/04 A2999 RMK AO2
PK WND 34029/0906 SLP128 T00670044





000
SAUS46 KLOX 260948
MTRCQT
METAR KCQT 260947Z AUTO 15003KT 10SM CLR 13/10 A2991 RMK AO2 SLP129
T01330100





000
SAUS46 KLOX 260948
MTRCQT
METAR KCQT 260947Z AUTO 15003KT 10SM CLR 13/10 A2991 RMK AO2 SLP129
T01330100





000
SAUS46 KLOX 260936
MTRMWS
METAR KMWS 260930Z 23500G00KT MM/00 RMK SNOW DEPTH  M





000
SAUS46 KLOX 260915
MTRMWS
METAR KMWS 260900Z 11005G11KT 03/00 RMK SNOW DEPTH  M





000
SAUS46 KLOX 260855
MTR9L2
METAR K9L2 260855Z AUTO 29019G25KT 10SM CLR 13/00 A2988 RMK AO2 PK
WND 30028/0829 SLP113 T01330000 50002 TSNO $





000
SAUS46 KLOX 260855
MTR9L2
METAR K9L2 260855Z AUTO 29019G25KT 10SM CLR 13/00 A2988 RMK AO2 PK
WND 30028/0829 SLP113 T01330000 50002 TSNO $





000
SAUS46 KLOX 260854
MTRMWS
METAR KMWS 260845Z 13004G12KT 03/00 RMK SNOW DEPTH  M





000
SAUS46 KLOX 260854
MTRMWS
METAR KMWS 260845Z 13004G12KT 03/00 RMK SNOW DEPTH  M





000
SAUS46 KLOX 260849
MTRSDB
METAR KSDB 260848Z AUTO 35015G26KT 10SM BKN008 OVC013 07/04 A2999
RMK AO2 PK WND 34026/0846 CIG 005V010 SLP132 T00720044 50007





000
SAUS46 KLOX 260848
MTRCQT
METAR KCQT 260847Z AUTO 00000KT 10SM CLR 14/10 A2992 RMK AO2 SLP130
T01390100 51006





000
SAUS46 KLOX 260842
MTRSDB
SPECI KSDB 260840Z AUTO 35013G20KT 10SM BKN008 OVC015 07/04 A2999
RMK AO2 CIG 005V011 T00720044





000
SAUS46 KLOX 260836
MTRMWS
METAR KMWS 260830Z 23500G00KT MM/00 RMK SNOW DEPTH  M





000
SAUS46 KLOX 260836
MTRMWS
METAR KMWS 260830Z 23500G00KT MM/00 RMK SNOW DEPTH  M





000
SAUS46 KLOX 260815
MTRMWS
METAR KMWS 260800Z 08501G05KT 03/00 RMK SNOW DEPTH 0.00





000
SAUS46 KLOX 260759
MTR9L2
METAR K9L2 260755Z AUTO 30018KT 10SM CLR 13/02 A2989 RMK AO2 SLP116
T01280017 401890106 TSNO $





000
SAUS46 KLOX 260754
MTRMWS
METAR KMWS 260745Z 10504G08KT 03/00 RMK SNOW DEPTH 0.00





000
SAUS46 KLOX 260749
MTRSDB
METAR KSDB 260748Z AUTO 10SM BKN011 OVC014 08/04 A2999 RMK AO2 PK
WND 34028/0652 CIG 006V012 SLP133 T00780044 401280056





000
SAUS46 KLOX 260749
MTRSDB
METAR KSDB 260748Z AUTO 10SM BKN011 OVC014 08/04 A2999 RMK AO2 PK
WND 34028/0652 CIG 006V012 SLP133 T00780044 401280056





000
SAUS46 KLOX 260748
MTRCQT
METAR KCQT 260747Z AUTO 00000KT 10SM CLR 14/10 A2991 RMK AO2 SLP128
T01390100 401890133





000
SAUS46 KLOX 260736
MTRMWS
METAR KMWS 260730Z 23500G00KT MM/01 RMK SNOW DEPTH  M





000
SAUS46 KLOX 260736
MTRMWS
METAR KMWS 260730Z 23500G00KT MM/01 RMK SNOW DEPTH  M





000
SAUS46 KLOX 260715
MTRMWS
METAR KMWS 260700Z 10505G11KT 04/01 RMK SNOW DEPTH 1.00





000
SAUS46 KLOX 260708
MTRSDB
SPECI KSDB 260707Z AUTO VRB05G19KT 10SM BKN010 OVC015 08/05 A2999
RMK AO2 PK WND 34028/0652 CIG 007V011 T00780050





000
SAUS46 KLOX 260708
MTRSDB
SPECI KSDB 260707Z AUTO VRB05G19KT 10SM BKN010 OVC015 08/05 A2999
RMK AO2 PK WND 34028/0652 CIG 007V011 T00780050





000
SAUS46 KLOX 260659
MTR9L2
METAR K9L2 260655Z AUTO 27013KT 10SM CLR 12/M01 A2990 RMK AO2 SLP118
T01221006 TSNO $





000
SAUS46 KLOX 260659
MTR9L2
METAR K9L2 260655Z AUTO 27013KT 10SM CLR 12/M01 A2990 RMK AO2 SLP118
T01221006 TSNO $





000
SAUS46 KLOX 260654
MTRMWS
METAR KMWS 260645Z 10005G10KT 03/00 RMK SNOW DEPTH 0.00





000
SAUS46 KLOX 260654
MTRMWS
METAR KMWS 260645Z 10005G10KT 03/00 RMK SNOW DEPTH 0.00





000
SAUS46 KLOX 260649
MTRSDB
METAR KSDB 260648Z AUTO 36018G28KT 10SM OVC008 08/05 A2998 RMK AO2
PK WND 34028/0648 CIG 006V012 SLP128 T00780050





000
SAUS46 KLOX 260649
MTRSDB
METAR KSDB 260648Z AUTO 36018G28KT 10SM OVC008 08/05 A2998 RMK AO2
PK WND 34028/0648 CIG 006V012 SLP128 T00780050





000
SAUS46 KLOX 260648
MTRCQT
METAR KCQT 260647Z AUTO 00000KT 10SM CLR 14/10 A2991 RMK AO2 SLP127
T01440100





000
SAUS46 KLOX 260636
MTRMWS
METAR KMWS 260630Z 23500G00KT MM/01 RMK SNOW DEPTH 1.00





000
SAUS46 KLOX 260636
MTRMWS
METAR KMWS 260630Z 23500G00KT MM/01 RMK SNOW DEPTH 1.00





000
SAUS46 KLOX 260630
MTRSDB
SPECI KSDB 260629Z AUTO 36009G20KT 330V040 10SM OVC006 08/05 A2998
RMK AO2 CIG 004V010 T00780050





000
SAUS46 KLOX 260630
MTRSDB
SPECI KSDB 260629Z AUTO 36009G20KT 330V040 10SM OVC006 08/05 A2998
RMK AO2 CIG 004V010 T00780050





000
SAUS46 KLOX 260615
MTRMWS
METAR KMWS 260600Z 08502G08KT 03/01 RMK SNOW DEPTH 1.00





000
SAUS46 KLOX 260615
MTRMWS
METAR KMWS 260600Z 08502G08KT 03/01 RMK SNOW DEPTH 1.00





000
SAUS46 KLOX 260554
MTRMWS
METAR KMWS 260545Z 30501G07KT 03/01 RMK SNOW DEPTH 1.00





000
SAUS46 KLOX 260554
MTRMWS
METAR KMWS 260545Z 30501G07KT 03/01 RMK SNOW DEPTH 1.00





000
SAUS46 KLOX 260554
MTR9L2
METAR K9L2 260555Z AUTO 30014G28KT 10SM CLR 13/M01 A2988 RMK AO2 PK
WND 30040/0456 SLP112 T01331011 10172 20133 53015 TSNO $





000
SAUS46 KLOX 260554
MTR9L2
METAR K9L2 260555Z AUTO 30014G28KT 10SM CLR 13/M01 A2988 RMK AO2 PK
WND 30040/0456 SLP112 T01331011 10172 20133 53015 TSNO $





000
SAUS46 KLOX 260550
MTRCQT
METAR KCQT 260547Z AUTO 00000KT 10SM CLR 15/09 A2990 RMK AO2 SLP124
T01500094 10189 20144 53013





000
SAUS46 KLOX 260549
MTRSDB
METAR KSDB 260548Z AUTO 01008G27KT 280V040 7SM OVC003 08/06 A2997
RMK AO2 PK WND 35027/0541 SLP124 60003 T00780061 10106 20072 51018





000
SAUS46 KLOX 260536
MTRMWS
METAR KMWS 260530Z 23500G00KT MM/02 RMK SNOW DEPTH 0.00





000
SAUS46 KLOX 260515
MTRMWS
METAR KMWS 260500Z 33004G10KT 03/02 RMK SNOW DEPTH 1.00





000
SAUS46 KLOX 260515
MTRMWS
METAR KMWS 260500Z 33004G10KT 03/02 RMK SNOW DEPTH 1.00





000
SAUS46 KLOX 260506
MTRSDB
SPECI KSDB 260504Z AUTO 01007KT 320V040 6SM BR OVC004 08/06 A2996
RMK AO2 CIG 003V007 T00830061





000
SAUS46 KLOX 260454
MTR9L2
METAR K9L2 260455Z AUTO 30027G38KT 10SM CLR 14/M02 A2983 RMK AO2 PK
WND 30039/0412 SLP094 T01391017 TSNO $





000
SAUS46 KLOX 260454
MTR9L2
METAR K9L2 260455Z AUTO 30027G38KT 10SM CLR 14/M02 A2983 RMK AO2 PK
WND 30039/0412 SLP094 T01391017 TSNO $





000
SAUS46 KLOX 260454
MTRMWS
METAR KMWS 260445Z 30505G10KT 05/03 RMK SNOW DEPTH 1.00





000
SAUS46 KLOX 260449
MTRSDB
METAR KSDB 260448Z AUTO 35014G25KT 330V040 8SM OVC006 08/06 A2996
RMK AO2 PK WND 34028/0434 SLP118 T00830056





000
SAUS46 KLOX 260449
MTRSDB
METAR KSDB 260448Z AUTO 35014G25KT 330V040 8SM OVC006 08/06 A2996
RMK AO2 PK WND 34028/0434 SLP118 T00830056





000
SAUS46 KLOX 260448
MTRCQT
METAR KCQT 260447Z AUTO 00000KT 10SM CLR 15/10 A2989 RMK AO2 SLP121
T01500100





000
SAUS46 KLOX 260448
MTRCQT
METAR KCQT 260447Z AUTO 00000KT 10SM CLR 15/10 A2989 RMK AO2 SLP121
T01500100





000
SAUS46 KLOX 260436
MTRMWS
METAR KMWS 260430Z 23500G00KT MM/03 RMK SNOW DEPTH 1.00





000
SAUS46 KLOX 260415
MTRMWS
METAR KMWS 260400Z 35507G18KT 05/03 RMK SNOW DEPTH 1.00





000
SAUS46 KLOX 260355
MTR9L2
METAR K9L2 260355Z AUTO 30029G37KT 10SM CLR 14/M02 A2982 RMK AO2 PK
WND 29037/0352 SLP093 T01391017 TSNO $





000
SAUS46 KLOX 260354
MTRMWS
METAR KMWS 260345Z 33007G17KT 05/04 RMK SNOW DEPTH 1.00





000
SAUS46 KLOX 260349
MTRSDB
METAR KSDB 260348Z AUTO 9SM OVC006 08/06 A2993 RMK AO2 PK WND
33029/0302 SLP114 T00830061





000
SAUS46 KLOX 260349
MTRSDB
METAR KSDB 260348Z AUTO 9SM OVC006 08/06 A2993 RMK AO2 PK WND
33029/0302 SLP114 T00830061





000
SAUS46 KLOX 260348
MTRCQT
METAR KCQT 260347Z AUTO 28004KT 10SM CLR 16/11 A2987 RMK AO2 SLP115
T01560106





000
SAUS46 KLOX 260336
MTRMWS
METAR KMWS 260330Z 23500G00KT MM/04 RMK SNOW DEPTH 0.00





000
SAUS46 KLOX 260315
MTRMWS
METAR KMWS 260300Z 34507G14KT 03/04 RMK SNOW DEPTH 0.00





000
SAUS46 KLOX 260255
MTR9L2
METAR K9L2 260255Z AUTO 30012G20KT 10SM CLR 14/01 A2983 RMK AO2 PK
WND 29031/0232 SLP098 T01440006 51029 TSNO $





000
SAUS46 KLOX 260255
MTR9L2
METAR K9L2 260255Z AUTO 30012G20KT 10SM CLR 14/01 A2983 RMK AO2 PK
WND 29031/0232 SLP098 T01440006 51029 TSNO $





000
SAUS46 KLOX 260254
MTRMWS
METAR KMWS 260245Z 03503G12KT 05/05 RMK SNOW DEPTH  M





000
SAUS46 KLOX 260249
MTRCQT
METAR KCQT 260247Z AUTO 29005KT 10SM CLR 16/11 A2986 RMK AO2 SLP112
T01560106 53001





000
SAUS46 KLOX 260249
MTRCQT
METAR KCQT 260247Z AUTO 29005KT 10SM CLR 16/11 A2986 RMK AO2 SLP112
T01560106 53001





000
SAUS46 KLOX 260249
MTRSDB
METAR KSDB 260248Z AUTO 32010G21KT 290V360 8SM OVC005 09/07 A2991
RMK AO2 PK WND 33027/0204 CIG 004V011 SLP104 60003 T00890067 53001





000
SAUS46 KLOX 260215
MTRMWS
METAR KMWS 260200Z 33002G07KT 06/06 RMK SNOW DEPTH  M





000
SAUS46 KLOX 260155
MTR9L2
METAR K9L2 260155Z AUTO 29018G30KT 10SM CLR 16/02 A2981 RMK AO2 PK
WND 28036/0058 SLP091 T01560022 TSNO $





000
SAUS46 KLOX 260155
MTR9L2
METAR K9L2 260155Z AUTO 29018G30KT 10SM CLR 16/02 A2981 RMK AO2 PK
WND 28036/0058 SLP091 T01560022 TSNO $





000
SAUS46 KLOX 260154
MTRMWS
METAR KMWS 260145Z 27502G06KT 05/06 RMK SNOW DEPTH  M





000
SAUS46 KLOX 260149
MTRCQT
METAR KCQT 260147Z AUTO VRB03KT 10SM BKN041 17/11 A2986 RMK AO2
SLP111 T01670106





000
SAUS46 KLOX 260149
MTRCQT
METAR KCQT 260147Z AUTO VRB03KT 10SM BKN041 17/11 A2986 RMK AO2
SLP111 T01670106





000
SAUS46 KLOX 260149
MTRSDB
METAR KSDB 260148Z AUTO 34017G24KT 10SM BKN008 BKN014 09/07 A2990
RMK AO2 PK WND 34029/0050 CIG 004V011 SLP100 T00940067





000
SAUS46 KLOX 260149
MTRSDB
METAR KSDB 260148Z AUTO 34017G24KT 10SM BKN008 BKN014 09/07 A2990
RMK AO2 PK WND 34029/0050 CIG 004V011 SLP100 T00940067





000
SAUS46 KLOX 260136
MTRMWS
METAR KMWS 260130Z 23500G00KT MM/06 RMK SNOW DEPTH  M





000
SAUS46 KLOX 260123
MTRSDB
SPECI KSDB 260122Z AUTO 33015G29KT 8SM BKN005 BKN010 BKN045 09/07
A2989 RMK AO2 PK WND 34029/0050 CIG 003V008 T00940067





000
SAUS46 KLOX 260118
MTRSDB
SPECI KSDB 260116Z AUTO 34016G25KT 8SM SCT005 BKN010 BKN022 09/07
A2989 RMK AO2 PK WND 34029/0050 CIG 008V015 T00940067





000
SAUS46 KLOX 260115
MTRMWS
METAR KMWS 260100Z 32505G09KT 06/07 RMK SNOW DEPTH  M





000
SAUS46 KLOX 260101
MTRSDB
SPECI KSDB 260100Z AUTO 33014G27KT 6SM HZ BKN005 BKN015 10/07 A2989
RMK AO2 PK WND 34029/0050 CIG 003V010 T01000072





000
SAUS46 KLOX 260101
MTRSDB
SPECI KSDB 260100Z AUTO 33014G27KT 6SM HZ BKN005 BKN015 10/07 A2989
RMK AO2 PK WND 34029/0050 CIG 003V010 T01000072





000
SAUS46 KLOX 260056
MTRSDB
SPECI KSDB 260055Z AUTO 34017G29KT 8SM SCT005 BKN010 BKN018 10/07
A2989 RMK AO2 PK WND 34029/0050 CIG 007V012 T01000067





000
SAUS46 KLOX 260056
MTRSDB
SPECI KSDB 260055Z AUTO 34017G29KT 8SM SCT005 BKN010 BKN018 10/07
A2989 RMK AO2 PK WND 34029/0050 CIG 007V012 T01000067





000
SAUS46 KLOX 260055
MTR9L2
METAR K9L2 260055Z AUTO 28023G33KT 10SM CLR 15/02 A2978 RMK AO2 PK
WND 27047/2358 SLP080 T01500022 TSNO $





000
SAUS46 KLOX 260054
MTRMWS
METAR KMWS 260045Z 25002G07KT 06/06 RMK SNOW DEPTH  M





000
SAUS46 KLOX 260049
MTRSDB
METAR KSDB 260048Z AUTO 34015G27KT 9SM BKN007 BKN013 BKN027 10/07
A2989 RMK AO2 PK WND 33027/0039 RAE28 CIG 003V010 SLP099 P0003
T01000072





000
SAUS46 KLOX 260048
MTRCQT
METAR KCQT 260047Z AUTO VRB06G19KT 10SM SCT020 18/11 A2985 RMK AO2
SLP107 T01780111





000
SAUS46 KLOX 260048
MTRCQT
METAR KCQT 260047Z AUTO VRB06G19KT 10SM SCT020 18/11 A2985 RMK AO2
SLP107 T01780111





000
SAUS46 KLOX 260037
MTRSDB
SPECI KSDB 260035Z AUTO 34015G27KT 10SM BKN007 BKN011 OVC017 10/07
A2989 RMK AO2 PK WND 34027/0031 RAE28 CIG 003V008 P0003 T01000072





000
SAUS46 KLOX 260037
MTRSDB
SPECI KSDB 260035Z AUTO 34015G27KT 10SM BKN007 BKN011 OVC017 10/07
A2989 RMK AO2 PK WND 34027/0031 RAE28 CIG 003V008 P0003 T01000072





000
SAUS46 KLOX 260036
MTRMWS
METAR KMWS 260030Z 23500G00KT MM/06 RMK SNOW DEPTH  M





000
SAUS46 KLOX 260036
MTRMWS
METAR KMWS 260030Z 23500G00KT MM/06 RMK SNOW DEPTH  M





000
SAUS46 KLOX 260033
MTRSDB
SPECI KSDB 260031Z AUTO 35019G27KT 9SM FEW003 BKN011 OVC017 10/07
A2990 RMK AO2 PK WND 34027/0031 RAE28 P0003 T01000072





000
SAUS46 KLOX 260023
MTRSDB
SPECI KSDB 260021Z AUTO 33013G21KT 8SM -RA BKN007 BKN015 OVC032
09/07 A2990 RMK AO2 P0003 T00940072





000
SAUS46 KLOX 260023
MTRSDB
SPECI KSDB 260021Z AUTO 33013G21KT 8SM -RA BKN007 BKN015 OVC032
09/07 A2990 RMK AO2 P0003 T00940072





000
SAUS46 KLOX 260015
MTRMWS
METAR KMWS 260000Z 27005G12KT 05/06 RMK SNOW DEPTH  M





000
SAUS46 KLOX 260014
MTRSDB
SPECI KSDB 260013Z AUTO 35016G23KT 9SM -RA FEW007 BKN018 OVC050
10/07 A2990 RMK AO2 P0003 T01000072





000
SAUS46 KLOX 260014
MTRSDB
SPECI KSDB 260013Z AUTO 35016G23KT 9SM -RA FEW007 BKN018 OVC050
10/07 A2990 RMK AO2 P0003 T01000072





000
SAUS46 KLOX 260009
MTRSDB
SPECI KSDB 260008Z AUTO 33014G25KT 5SM -RA FEW008 BKN030 OVC050
09/07 A2990 RMK AO2 P0003 T00940067





000
SAUS46 KLOX 260009
MTRSDB
SPECI KSDB 260008Z AUTO 33014G25KT 5SM -RA FEW008 BKN030 OVC050
09/07 A2990 RMK AO2 P0003 T00940067





000
SAUS46 KLOX 252355
MTR9L2
METAR K9L2 252355Z AUTO 27036G48KT 10SM CLR 17/02 A2974 RMK AO2 PK
WND 26048/2346 SLP065 T01670017 10189 20156 58018 $





000
SAUS46 KLOX 252355
MTR9L2
METAR K9L2 252355Z AUTO 27036G48KT 10SM CLR 17/02 A2974 RMK AO2 PK
WND 26048/2346 SLP065 T01670017 10189 20156 58018 $





000
SAUS46 KLOX 252354
MTRMWS
METAR KMWS 252345Z 24008G13KT 05/06 RMK SNOW DEPTH  M





000
SAUS46 KLOX 252354
MTRMWS
METAR KMWS 252345Z 24008G13KT 05/06 RMK SNOW DEPTH  M





000
SAUS46 KLOX 252349
MTRCQT
METAR KCQT 252347Z AUTO 27007G18KT 10SM BKN017 18/13 A2986 RMK AO2
RAB2259E08 SLP110 P0000 60000 T01830128 10189 20167 56027





000
SAUS46 KLOX 252349
MTRCQT
METAR KCQT 252347Z AUTO 27007G18KT 10SM BKN017 18/13 A2986 RMK AO2
RAB2259E08 SLP110 P0000 60000 T01830128 10189 20167 56027





000
SAUS46 KLOX 252349
MTRSDB
METAR KSDB 252348Z AUTO 33019G25KT 10SM -RA FEW036 BKN055 OVC070
10/06 A2990 RMK AO2 PK WND 32030/2322 RAB13 SLP103 P0000 60005
T01000061 10128 20089 55008





000
SAUS46 KLOX 252349
MTRSDB
METAR KSDB 252348Z AUTO 33019G25KT 10SM -RA FEW036 BKN055 OVC070
10/06 A2990 RMK AO2 PK WND 32030/2322 RAB13 SLP103 P0000 60005
T01000061 10128 20089 55008





000
SAUS46 KLOX 252336
MTRMWS
METAR KMWS 252330Z 23500G00KT MM/07 RMK SNOW DEPTH  M





000
SAUS46 KLOX 252315
MTRMWS
METAR KMWS 252300Z 25011G14KT 06/07 RMK SNOW DEPTH  M





000
SAUS46 KLOX 252315
MTRMWS
METAR KMWS 252300Z 25011G14KT 06/07 RMK SNOW DEPTH  M





000
SAUS46 KLOX 252300
MTRCQT
SPECI KCQT 252258Z AUTO VRB04KT 10SM BKN016 OVC043 18/13 A2988 RMK
AO2 T01830133





000
SAUS46 KLOX 252300
MTRCQT
SPECI KCQT 252258Z AUTO VRB04KT 10SM BKN016 OVC043 18/13 A2988 RMK
AO2 T01830133





000
SAUS46 KLOX 252255
MTRSDB
SPECI KSDB 252254Z AUTO 29023G28KT 10SM FEW002 13/07 A2990 RMK AO2
PK WND 29028/2254 T01280067





000
SAUS46 KLOX 252255
MTR9L2
METAR K9L2 252255Z AUTO 26032G41KT 10SM CLR 18/03 A2978 RMK AO2 PK
WND 27043/2243 SLP077 T01780033 TSNO $





000
SAUS46 KLOX 252255
MTRSDB
SPECI KSDB 252254Z AUTO 29023G28KT 10SM FEW002 13/07 A2990 RMK AO2
PK WND 29028/2254 T01280067





000
SAUS46 KLOX 252254
MTRMWS
METAR KMWS 252245Z 25512G14KT 06/06 RMK SNOW DEPTH  M





000
SAUS46 KLOX 252254
MTRMWS
METAR KMWS 252245Z 25512G14KT 06/06 RMK SNOW DEPTH  M





000
SAUS46 KLOX 252249
MTRSDB
METAR KSDB 252248Z AUTO 31020G27KT 10SM FEW012 FEW050 13/07 A2990
RMK AO2 PK WND 33032/2204 RAB2157E25 SLP098 P0001 T01280067





000
SAUS46 KLOX 252249
MTRSDB
METAR KSDB 252248Z AUTO 31020G27KT 10SM FEW012 FEW050 13/07 A2990
RMK AO2 PK WND 33032/2204 RAB2157E25 SLP098 P0001 T01280067





000
SAUS46 KLOX 252248
MTRCQT
METAR KCQT 252247Z AUTO 27007G14KT 230V310 10SM SCT018 BKN041 OVC048
18/13 A2988 RMK AO2 SLP118 T01830128





000
SAUS46 KLOX 252248
MTRCQT
METAR KCQT 252247Z AUTO 27007G14KT 230V310 10SM SCT018 BKN041 OVC048
18/13 A2988 RMK AO2 SLP118 T01830128





000
SAUS46 KLOX 252236
MTRCQT
SPECI KCQT 252235Z AUTO 26007KT 10SM BKN017 BKN040 OVC048 18/13
A2989 RMK AO2 T01780128





000
SAUS46 KLOX 252236
MTRMWS
METAR KMWS 252230Z 23500G00KT MM/06 RMK SNOW DEPTH  M





000
SAUS46 KLOX 252236
MTRCQT
SPECI KCQT 252235Z AUTO 26007KT 10SM BKN017 BKN040 OVC048 18/13
A2989 RMK AO2 T01780128





000
SAUS46 KLOX 252236
MTRMWS
METAR KMWS 252230Z 23500G00KT MM/06 RMK SNOW DEPTH  M





000
SAUS46 KLOX 252215
MTRMWS
METAR KMWS 252200Z 23508G08KT 05/06 RMK SNOW DEPTH  M





000
SAUS46 KLOX 252201
MTRSDB
SPECI KSDB 252159Z AUTO 34021G27KT 7SM -RA FEW008 BKN037 OVC046
11/07 A2992 RMK AO2 PK WND 34027/2155 RAB57 P0000 T01060072





000
SAUS46 KLOX 252155
MTR9L2
METAR K9L2 252155Z AUTO 26026G33KT 10SM FEW031 18/04 A2980 RMK AO2
PK WND 26040/2112 SLP084 T01780044 TSNO $





000
SAUS46 KLOX 252154
MTRMWS
METAR KMWS 252145Z 24004G05KT 05/06 RMK SNOW DEPTH  M





000
SAUS46 KLOX 252150
MTRSDB
METAR KSDB 252148Z AUTO 34020KT 10SM FEW013 BKN039 BKN049 12/07
A2992 RMK AO2 PK WND 31028/2133 RAE09B11E26 SLP104 P0001 T01170067





000
SAUS46 KLOX 252148
MTRCQT
METAR KCQT 252147Z AUTO VRB04G15KT 10SM SCT016 OVC041 17/12 A2992
RMK AO2 SLP130 T01720122





000
SAUS46 KLOX 252148
MTRCQT
METAR KCQT 252147Z AUTO VRB04G15KT 10SM SCT016 OVC041 17/12 A2992
RMK AO2 SLP130 T01720122





000
SAUS46 KLOX 252136
MTRMWS
METAR KMWS 252130Z 23500G00KT MM/04 RMK SNOW DEPTH  M





000
SAUS46 KLOX 252128
MTRSDB
SPECI KSDB 252127Z AUTO 30012G21KT 10SM FEW004 SCT016 BKN041 13/08
A2992 RMK AO2 RAE09B11E26 P0001 T01280078





000
SAUS46 KLOX 252119
MTRSDB
SPECI KSDB 252117Z AUTO 28012G24KT 10SM -RA FEW008 BKN020 OVC045
11/08 A2993 RMK AO2 RAE09B11 P0001 T01110078





000
SAUS46 KLOX 252119
MTRSDB
SPECI KSDB 252117Z AUTO 28012G24KT 10SM -RA FEW008 BKN020 OVC045
11/08 A2993 RMK AO2 RAE09B11 P0001 T01110078





000
SAUS46 KLOX 252115
MTRMWS
METAR KMWS 252100Z 24005G08KT 05/06 RMK SNOW DEPTH  M





000
SAUS46 KLOX 252115
MTRMWS
METAR KMWS 252100Z 24005G08KT 05/06 RMK SNOW DEPTH  M





000
SAUS46 KLOX 252115
MTRSDB
SPECI KSDB 252113Z AUTO 29016G24KT 3SM -RA FEW004 BKN014 OVC045
11/08 A2993 RMK AO2 RAE09B11 P0001 T01110078





000
SAUS46 KLOX 252115
MTRSDB
SPECI KSDB 252113Z AUTO 29016G24KT 3SM -RA FEW004 BKN014 OVC045
11/08 A2993 RMK AO2 RAE09B11 P0001 T01110078





000
SAUS46 KLOX 252111
MTRSDB
SPECI KSDB 252110Z AUTO 28014G19KT 2SM HZ FEW002 BKN009 OVC039 11/08
A2993 RMK AO2 RAE09 P0001 T01060078





000
SAUS46 KLOX 252110
MTRCQT
SPECI KCQT 252109Z AUTO VRB06G17KT 10SM BKN018 OVC042 18/13 A2994
RMK AO2 T01780128





000
SAUS46 KLOX 252109
MTRSDB
SPECI KSDB 252107Z AUTO 30008G23KT 2SM -RA BR BKN001 BKN006 OVC012
10/08 A2993 RMK AO2 VIS 3/4V5 P0001 T01000078





000
SAUS46 KLOX 252105
MTRSDB
SPECI KSDB 252104Z AUTO VRB06G23KT 1 1/4SM -RA BKN001 BKN006 OVC010
10/07 A2993 RMK AO2 P0001 T01000072





000
SAUS46 KLOX 252105
MTRSDB
SPECI KSDB 252104Z AUTO VRB06G23KT 1 1/4SM -RA BKN001 BKN006 OVC010
10/07 A2993 RMK AO2 P0001 T01000072





000
SAUS46 KLOX 252059
MTR9L2
METAR K9L2 252055Z AUTO 25026G36KT 10SM FEW027 SCT035 18/05 A2980
RMK AO2 PK WND 27036/2046 SLP083 T01830050 58020 TSNO $





000
SAUS46 KLOX 252057
MTRSDB
SPECI KSDB 252056Z AUTO 32010G15KT 280V350 1/4SM -RA VV001 10/07
A2993 RMK AO2 P0000 T01000072





000
SAUS46 KLOX 252054
MTRMWS
METAR KMWS 252045Z 22005G09KT 05/06 RMK SNOW DEPTH  M





000
SAUS46 KLOX 252054
MTRMWS
METAR KMWS 252045Z 22005G09KT 05/06 RMK SNOW DEPTH  M





000
SAUS46 KLOX 252052
MTRCQT
SPECI KCQT 252051Z AUTO VRB04KT 10SM SCT018 OVC042 17/12 A2994 RMK
AO2 T01720122





000
SAUS46 KLOX 252050
MTR9L2
SPECI K9L2 252050Z AUTO 26026G36KT 10SM SCT027 BKN035 18/05 A2980
RMK AO2 PK WND 27036/2046 $





000
SAUS46 KLOX 252049
MTRSDB
METAR KSDB 252048Z AUTO VRB05KT M1/4SM -RA FG VV002 10/08 A2993 RMK
AO2 RAE10B40 SLP111 P0000 60003 T01000083 58009





000
SAUS46 KLOX 252048
MTRCQT
METAR KCQT 252047Z AUTO VRB06KT 10SM SCT019 BKN026 OVC042 18/12
A2994 RMK AO2 SLP138 T01780117 58017





000
SAUS46 KLOX 252048
MTRCQT
METAR KCQT 252047Z AUTO VRB06KT 10SM SCT019 BKN026 OVC042 18/12
A2994 RMK AO2 SLP138 T01780117 58017





000
SAUS46 KLOX 252046
MTRSDB
SPECI KSDB 252044Z AUTO 21006KT 1/4SM -RA FG BKN002 OVC006 10/08
A2993 RMK AO2 RAE10B40 P0000 T01000078





000
SAUS46 KLOX 252037
MTRSDB
SPECI KSDB 252036Z AUTO 22009KT 1/2SM FG BKN002 OVC006 11/08 A2993
RMK AO2 RAE10 P0000 T01060083





000
SAUS46 KLOX 252036
MTRMWS
METAR KMWS 252030Z 23500G00KT MM/04 RMK SNOW DEPTH  M





000
SAUS46 KLOX 252033
MTRCQT
SPECI KCQT 252032Z AUTO 27005KT 10SM SCT019 BKN026 OVC042 17/12
A2995 RMK AO2 T01720122





000
SAUS46 KLOX 252033
MTRCQT
SPECI KCQT 252032Z AUTO 27005KT 10SM SCT019 BKN026 OVC042 17/12
A2995 RMK AO2 T01720122





000
SAUS46 KLOX 252015
MTRMWS
METAR KMWS 252000Z 22006G10KT 05/05 RMK SNOW DEPTH  M





000
SAUS46 KLOX 252015
MTRSDB
SPECI KSDB 252013Z AUTO 19009KT 1/4SM FG BKN002 OVC008 09/08 A2994
RMK AO2 RAE10 P0000 T00940078





000
SAUS46 KLOX 251957
MTRSDB
SPECI KSDB 251955Z AUTO 20004KT 3/4SM -RA BR BKN004 OVC010 09/07
A2994 RMK AO2 VIS 1/4V4 P0000 T00940072





000
SAUS46 KLOX 251957
MTRSDB
SPECI KSDB 251955Z AUTO 20004KT 3/4SM -RA BR BKN004 OVC010 09/07
A2994 RMK AO2 VIS 1/4V4 P0000 T00940072





000
SAUS46 KLOX 251955
MTR9L2
METAR K9L2 251955Z AUTO 26020G34KT 10SM BKN028 BKN033 OVC040 17/04
A2983 RMK AO2 PK WND 24039/1915 SLP096 T01720044 $





000
SAUS46 KLOX 251954
MTRMWS
METAR KMWS 251945Z 23009G11KT 05/05 RMK SNOW DEPTH  M





000
SAUS46 KLOX 251954
MTRMWS
METAR KMWS 251945Z 23009G11KT 05/05 RMK SNOW DEPTH  M





000
SAUS46 KLOX 251953
MTRSDB
SPECI KSDB 251951Z AUTO VRB04KT 1SM -RA BR SCT004 BKN008 OVC019
09/07 A2994 RMK AO2 VIS 1/4V5 P0000 T00940072





000
SAUS46 KLOX 251951
MTR9L2
SPECI K9L2 251951Z AUTO 25025G31KT 10SM BKN028 BKN033 OVC050 17/05
A2982 RMK AO2 PK WND 24039/1915 TSNO $





000
SAUS46 KLOX 251948
MTRCQT
METAR KCQT 251947Z AUTO 28007KT 10SM OVC047 17/11 A2996 RMK AO2
SLP145 T01720106





000
SAUS46 KLOX 251948
MTRCQT
METAR KCQT 251947Z AUTO 28007KT 10SM OVC047 17/11 A2996 RMK AO2
SLP145 T01720106





000
SAUS46 KLOX 251947
MTRSDB
METAR KSDB 251947Z AUTO VRB04KT 1 1/2SM -RA BR SCT004 BKN008 OVC015
09/07 A2995 RMK AO2 VIS 1/4V5 SLP119 P0003 T00940072





000
SAUS46 KLOX 251947
MTRSDB
METAR KSDB 251947Z AUTO VRB04KT 1 1/2SM -RA BR SCT004 BKN008 OVC015
09/07 A2995 RMK AO2 VIS 1/4V5 SLP119 P0003 T00940072





000
SAUS46 KLOX 251938
MTRSDB
SPECI KSDB 251936Z AUTO 00000KT 3SM -RA BR FEW004 BKN010 OVC023
09/07 A2995 RMK AO2 P0002 T00890072





000
SAUS46 KLOX 251938
MTRSDB
SPECI KSDB 251936Z AUTO 00000KT 3SM -RA BR FEW004 BKN010 OVC023
09/07 A2995 RMK AO2 P0002 T00890072





000
SAUS46 KLOX 251936
MTRMWS
METAR KMWS 251930Z 22506G08KT 05/05 RMK SNOW DEPTH  M





000
SAUS46 KLOX 251936
MTRMWS
METAR KMWS 251930Z 22506G08KT 05/05 RMK SNOW DEPTH  M





000
SAUS46 KLOX 251926
MTRSDB
SPECI KSDB 251925Z AUTO 21005KT 4SM -RA BR SCT004 BKN016 OVC038
09/07 A2995 RMK AO2 P0002 T00890072





000
SAUS46 KLOX 251921
MTRSDB
SPECI KSDB 251920Z AUTO 23005KT 6SM -RA BR BKN004 BKN016 OVC038
09/07 A2995 RMK AO2 P0001 T00940072





000
SAUS46 KLOX 251915
MTRMWS
METAR KMWS 251900Z 23009G11KT 05/05 RMK SNOW DEPTH  M





000
SAUS46 KLOX 251915
MTRMWS
METAR KMWS 251900Z 23009G11KT 05/05 RMK SNOW DEPTH  M





000
SAUS46 KLOX 251912
MTRSDB
SPECI KSDB 251911Z AUTO 21006KT 7SM -RA BKN005 BKN010 OVC039 09/07
A2996 RMK AO2 P0001 T00940072





000
SAUS46 KLOX 251903
MTRSDB
SPECI KSDB 251902Z AUTO 22009KT 7SM -RA SCT005 BKN029 OVC040 10/08
A2996 RMK AO2 P0001 T01000078





000
SAUS46 KLOX 251903
MTRSDB
SPECI KSDB 251902Z AUTO 22009KT 7SM -RA SCT005 BKN029 OVC040 10/08
A2996 RMK AO2 P0001 T01000078





000
SAUS46 KLOX 251856
MTRSDB
SPECI KSDB 251855Z AUTO 19007KT 7SM -RA SCT005 BKN011 OVC035 09/07
A2996 RMK AO2 P0000 T00940072





000
SAUS46 KLOX 251856
MTRSDB
SPECI KSDB 251855Z AUTO 19007KT 7SM -RA SCT005 BKN011 OVC035 09/07
A2996 RMK AO2 P0000 T00940072





000
SAUS46 KLOX 251854
MTRMWS
METAR KMWS 251845Z 23505G08KT 05/06 RMK SNOW DEPTH  M





000
SAUS46 KLOX 251854
MTR9L2
METAR K9L2 251855Z AUTO 24025G33KT 10SM FEW030 18/04 A2983 RMK AO2
PK WND 24033/1855 SLP094 T01830044 TSNO $





000
SAUS46 KLOX 251854
MTR9L2
METAR K9L2 251855Z AUTO 24025G33KT 10SM FEW030 18/04 A2983 RMK AO2
PK WND 24033/1855 SLP094 T01830044 TSNO $





000
SAUS46 KLOX 251851
MTRSDB
SPECI KSDB 251850Z AUTO 21006KT 7SM -RA SCT005 BKN009 OVC035 09/07
A2996 RMK AO2 P0000 T00940067





000
SAUS46 KLOX 251849
MTRSDB
METAR KSDB 251848Z AUTO 21008KT 7SM -RA SCT005 BKN027 OVC035 09/07
A2996 RMK AO2 RAB05 SLP124 P0000 T00940067





000
SAUS46 KLOX 251849
MTRSDB
METAR KSDB 251848Z AUTO 21008KT 7SM -RA SCT005 BKN027 OVC035 09/07
A2996 RMK AO2 RAB05 SLP124 P0000 T00940067





000
SAUS46 KLOX 251848
MTRCQT
METAR KCQT 251847Z AUTO 26004KT 10SM CLR 18/10 A2998 RMK AO2 SLP150
T01830100





000
SAUS46 KLOX 251848
MTRCQT
METAR KCQT 251847Z AUTO 26004KT 10SM CLR 18/10 A2998 RMK AO2 SLP150
T01830100





000
SAUS46 KLOX 251841
MTRSDB
SPECI KSDB 251839Z AUTO 22008KT 8SM -RA BKN005 BKN015 OVC027 09/07
A2996 RMK AO2 RAB05 P0000 T00940067





000
SAUS46 KLOX 251836
MTRMWS
METAR KMWS 251830Z 23500G00KT MM/06 RMK SNOW DEPTH  M





000
SAUS46 KLOX 251815
MTRMWS
METAR KMWS 251800Z 22507G09KT 05/05 RMK SNOW DEPTH 0.00





000
SAUS46 KLOX 251814
MTRSDB
SPECI KSDB 251813Z AUTO 20010KT 10SM -RA BKN004 OVC016 09/06 A2997
RMK AO2 RAB05 P0000 T00890061





000
SAUS46 KLOX 251811
MTRSDB
SPECI KSDB 251809Z AUTO 21011KT 10SM -RA FEW002 BKN006 OVC032 09/06
A2997 RMK AO2 RAB05 P0000 T00940061





000
SAUS46 KLOX 251811
MTRSDB
SPECI KSDB 251809Z AUTO 21011KT 10SM -RA FEW002 BKN006 OVC032 09/06
A2997 RMK AO2 RAB05 P0000 T00940061





000
SAUS46 KLOX 251758
MTRSDB
SPECI KSDB 251756Z AUTO 21013KT 10SM BKN003 BKN034 OVC041 09/06
A2996 RMK AO2 T00940061





000
SAUS46 KLOX 251755
MTR9L2
METAR K9L2 251755Z AUTO 24021G30KT 10SM OVC033 17/02 A2986 RMK AO2
PK WND 25030/1754 SLP106 T01670022 10172 20111 58014 TSNO $





000
SAUS46 KLOX 251754
MTRMWS
METAR KMWS 251745Z 24507G12KT 06/06 RMK SNOW DEPTH 1.00





000
SAUS46 KLOX 251749
MTRSDB
METAR KSDB 251748Z AUTO 18015G20KT 10SM FEW003 BKN008 OVC038 09/06
A2996 RMK AO2 SLP119 T00940056 10111 20056 55004





000
SAUS46 KLOX 251749
MTRSDB
METAR KSDB 251748Z AUTO 18015G20KT 10SM FEW003 BKN008 OVC038 09/06
A2996 RMK AO2 SLP119 T00940056 10111 20056 55004





000
SAUS46 KLOX 251748
MTRCQT
METAR KCQT 251747Z AUTO VRB03KT 10SM SCT040 19/09 A2999 RMK AO2
SLP154 T01890094 10189 20139 53003





000
SAUS46 KLOX 251748
MTRCQT
METAR KCQT 251747Z AUTO VRB03KT 10SM SCT040 19/09 A2999 RMK AO2
SLP154 T01890094 10189 20139 53003





000
SAUS46 KLOX 251736
MTRMWS
METAR KMWS 251730Z 23500G00KT MM/06 RMK SNOW DEPTH 1.00





000
SAUS46 KLOX 251736
MTRSDB
SPECI KSDB 251735Z AUTO 20011KT 10SM SCT008 SCT015 OVC038 11/06
A2996 RMK AO2 T01060061





000
SAUS46 KLOX 251729
MTRSDB
SPECI KSDB 251728Z AUTO 21012G16KT 10SM SCT008 BKN015 OVC038 10/06
A2996 RMK AO2 T01000056





000
SAUS46 KLOX 251724
MTRSDB
SPECI KSDB 251723Z AUTO 21011G16KT 10SM SCT010 BKN014 OVC036 11/06
A2996 RMK AO2 T01060056





000
SAUS46 KLOX 251719
MTRSDB
SPECI KSDB 251718Z AUTO 21012G16KT 10SM FEW010 SCT014 BKN019 11/06
A2996 RMK AO2 T01110056





000
SAUS46 KLOX 251719
MTRSDB
SPECI KSDB 251718Z AUTO 21012G16KT 10SM FEW010 SCT014 BKN019 11/06
A2996 RMK AO2 T01110056





000
SAUS46 KLOX 251715
MTRMWS
METAR KMWS 251700Z 24007G09KT 06/07 RMK SNOW DEPTH  M





000
SAUS46 KLOX 251715
MTRMWS
METAR KMWS 251700Z 24007G09KT 06/07 RMK SNOW DEPTH  M





000
SAUS46 KLOX 251706
MTRCQT
SPECI KCQT 251704Z AUTO 27005KT 10SM SCT026 BKN037 BKN044 17/11
A2999 RMK AO2 T01720106





000
SAUS46 KLOX 251702
MTRCQT
SPECI KCQT 251701Z AUTO VRB03KT 10SM SCT023 BKN029 BKN041 17/11
A2999 RMK AO2 T01720106





000
SAUS46 KLOX 251702
MTRCQT
SPECI KCQT 251701Z AUTO VRB03KT 10SM SCT023 BKN029 BKN041 17/11
A2999 RMK AO2 T01720106





000
SAUS46 KLOX 251655
MTR9L2
METAR K9L2 251655Z AUTO 26014G26KT 10SM CLR 16/01 A2988 RMK AO2 PK
WND 27026/1653 SLP114 T01560006 TSNO $





000
SAUS46 KLOX 251654
MTRMWS
METAR KMWS 251645Z 22504G07KT 06/06 RMK SNOW DEPTH  M





000
SAUS46 KLOX 251649
MTRSDB
METAR KSDB 251648Z AUTO 23011G17KT 10SM FEW022 BKN036 11/03 A2996
RMK AO2 SLP118 T01060033





000
SAUS46 KLOX 251648
MTRCQT
METAR KCQT 251647Z AUTO 00000KT 10SM SCT022 BKN030 OVC043 17/11
A2998 RMK AO2 SLP151 T01670106





000
SAUS46 KLOX 251641
MTRCQT
SPECI KCQT 251640Z AUTO VRB03KT 10SM SCT022 BKN027 OVC033 17/11
A2998 RMK AO2 T01670106





000
SAUS46 KLOX 251641
MTRCQT
SPECI KCQT 251640Z AUTO VRB03KT 10SM SCT022 BKN027 OVC033 17/11
A2998 RMK AO2 T01670106





000
SAUS46 KLOX 251636
MTRMWS
METAR KMWS 251630Z 23500G00KT MM/06 RMK SNOW DEPTH  M





000
SAUS46 KLOX 251631
MTRCQT
SPECI KCQT 251630Z AUTO VRB03KT 10SM FEW019 FEW025 OVC033 17/11
A2999 RMK AO2 T01670106





000
SAUS46 KLOX 251615
MTRMWS
METAR KMWS 251600Z 23505G08KT 05/05 RMK SNOW DEPTH  M





000
SAUS46 KLOX 251615
MTRMWS
METAR KMWS 251600Z 23505G08KT 05/05 RMK SNOW DEPTH  M





000
SAUS46 KLOX 251608
MTRSDB
SPECI KSDB 251607Z AUTO 21008KT 10SM SCT030 BKN038 09/02 A2996 RMK
AO2 T00890017





000
SAUS46 KLOX 251559
MTR9L2
METAR K9L2 251555Z AUTO 28019G25KT 10SM CLR 13/01 A2990 RMK AO2
SLP122 T01330006 TSNO $





000
SAUS46 KLOX 251558
MTRSDB
SPECI KSDB 251557Z AUTO 10SM BKN029 OVC036 08/01 A2996 RMK AO2
T00830006





000
SAUS46 KLOX 251558
MTRSDB
SPECI KSDB 251557Z AUTO 10SM BKN029 OVC036 08/01 A2996 RMK AO2
T00830006





000
SAUS46 KLOX 251557
MTRMWS
METAR KMWS 251545Z 21506G10KT 05/05 RMK SNOW DEPTH 0.00





000
SAUS46 KLOX 251549
MTRSDB
METAR KSDB 251548Z AUTO 19006KT 10SM BKN030 OVC037 08/01 A2997 RMK
AO2 SLP125 T00830006





000
SAUS46 KLOX 251549
MTRSDB
METAR KSDB 251548Z AUTO 19006KT 10SM BKN030 OVC037 08/01 A2997 RMK
AO2 SLP125 T00830006





000
SAUS46 KLOX 251548
MTRCQT
METAR KCQT 251547Z AUTO 00000KT 10SM BKN017 OVC027 16/11 A2999 RMK
AO2 SLP154 T01560111





000
SAUS46 KLOX 251548
MTRCQT
METAR KCQT 251547Z AUTO 00000KT 10SM BKN017 OVC027 16/11 A2999 RMK
AO2 SLP154 T01560111





000
SAUS46 KLOX 251536
MTRMWS
METAR KMWS 251530Z 23500G00KT MM/05 RMK SNOW DEPTH  M





000
SAUS46 KLOX 251507
MTRCQT
SPECI KCQT 251506Z AUTO 00000KT 10SM BKN015 BKN025 OVC039 15/11
A2999 RMK AO2 T01500106





000
SAUS46 KLOX 251507
MTRCQT
SPECI KCQT 251506Z AUTO 00000KT 10SM BKN015 BKN025 OVC039 15/11
A2999 RMK AO2 T01500106





000
SAUS46 KLOX 251504
MTRCQT
SPECI KCQT 251503Z AUTO 00000KT 10SM BKN014 BKN025 OVC039 15/11
A2999 RMK AO2 T01500106





000
SAUS46 KLOX 251458
MTRCQT
SPECI KCQT 251457Z AUTO 00000KT 10SM SCT014 BKN025 OVC039 15/11
A2999 RMK AO2 T01500106





000
SAUS46 KLOX 251454
MTRMWS
METAR KMWS 251445Z 23510G13KT 05/01 RMK SNOW DEPTH 1.00





000
SAUS46 KLOX 251454
MTR9L2
METAR K9L2 251455Z AUTO 25009KT 10SM CLR 12/M01 A2990 RMK AO2 SLP124
T01171011 53002 TSNO $





000
SAUS46 KLOX 251450
MTRSDB
METAR KSDB 251448Z AUTO 28005KT 10SM FEW038 08/M01 A2997 RMK AO2
SLP129 T00781011 55001





000
SAUS46 KLOX 251450
MTRSDB
METAR KSDB 251448Z AUTO 28005KT 10SM FEW038 08/M01 A2997 RMK AO2
SLP129 T00781011 55001





000
SAUS46 KLOX 251448
MTRCQT
METAR KCQT 251447Z AUTO 00000KT 10SM FEW014 FEW025 BKN039 14/10
A2998 RMK AO2 SLP152 T01440100 53003





000
SAUS46 KLOX 251415
MTRMWS
METAR KMWS 251400Z 24508G11KT 05/00 RMK SNOW DEPTH 1.00





000
SAUS46 KLOX 251355
MTR9L2
METAR K9L2 251355Z AUTO 26015G19KT 10SM CLR 11/M02 A2990 RMK AO2 PK
WND 26026/1314 SLP124 T01111017 TSNO $





000
SAUS46 KLOX 251354
MTRMWS
METAR KMWS 251345Z 27506G10KT 05/00 RMK SNOW DEPTH 1.00





000
SAUS46 KLOX 251354
MTRMWS
METAR KMWS 251345Z 27506G10KT 05/00 RMK SNOW DEPTH 1.00





000
SAUS46 KLOX 251349
MTRSDB
METAR KSDB 251348Z AUTO 25006KT 10SM CLR 07/M01 A2997 RMK AO2 SLP127
T00721011





000
SAUS46 KLOX 251348
MTRCQT
METAR KCQT 251347Z AUTO 00000KT 10SM FEW038 14/10 A2997 RMK AO2
SLP147 T01440100





000
SAUS46 KLOX 251336
MTRMWS
METAR KMWS 251330Z 23500G00KT MM/01 RMK SNOW DEPTH 1.00





000
SAUS46 KLOX 251315
MTRMWS
METAR KMWS 251300Z 27009G13KT 05/M01 RMK SNOW DEPTH 1.00





000
SAUS46 KLOX 251315
MTRMWS
METAR KMWS 251300Z 27009G13KT 05/M01 RMK SNOW DEPTH 1.00





000
SAUS46 KLOX 251255
MTR9L2
METAR K9L2 251255Z AUTO 24013G22KT 10SM CLR 12/M03 A2989 RMK AO2 PK
WND 26026/1213 SLP118 T01171028 TSNO $





000
SAUS46 KLOX 251254
MTRMWS
METAR KMWS 251245Z 27508G11KT 05/00 RMK SNOW DEPTH 0.00





000
SAUS46 KLOX 251249
MTRSDB
METAR KSDB 251248Z AUTO 32011KT 10SM CLR 06/M01 A2996 RMK AO2 SLP126
T00611011





000
SAUS46 KLOX 251249
MTRSDB
METAR KSDB 251248Z AUTO 32011KT 10SM CLR 06/M01 A2996 RMK AO2 SLP126
T00611011





000
SAUS46 KLOX 251248
MTRCQT
METAR KCQT 251247Z AUTO 00000KT 10SM OVC038 14/10 A2997 RMK AO2
SLP148 T01440100





000
SAUS46 KLOX 251248
MTRCQT
METAR KCQT 251247Z AUTO 00000KT 10SM OVC038 14/10 A2997 RMK AO2
SLP148 T01440100





000
SAUS46 KLOX 251236
MTRMWS
METAR KMWS 251230Z 29012G17KT 05/M01 RMK SNOW DEPTH  M





000
SAUS46 KLOX 251215
MTRMWS
METAR KMWS 251200Z 29011G19KT 03/01 RMK SNOW DEPTH  M





000
SAUS46 KLOX 251215
MTRMWS
METAR KMWS 251200Z 29011G19KT 03/01 RMK SNOW DEPTH  M





000
SAUS46 KLOX 251159
MTR9L2
METAR K9L2 251155Z AUTO 21013KT 10SM CLR 12/M01 A2989 RMK AO2 SLP121
T01171011 10144 20111 50002 TSNO $





000
SAUS46 KLOX 251159
MTR9L2
METAR K9L2 251155Z AUTO 21013KT 10SM CLR 12/M01 A2989 RMK AO2 SLP121
T01171011 10144 20111 50002 TSNO $





000
SAUS46 KLOX 251154
MTRMWS
METAR KMWS 251145Z 30511G12KT 04/04 RMK SNOW DEPTH 0.00





000
SAUS46 KLOX 251154
MTRMWS
METAR KMWS 251145Z 30511G12KT 04/04 RMK SNOW DEPTH 0.00





000
SAUS46 KLOX 251149
MTRSDB
METAR KSDB 251148Z AUTO 32013G20KT 10SM CLR 06/M01 A2998 RMK AO2
SLP131 T00611006 10089 20056 57006





000
SAUS46 KLOX 251148
MTRCQT
METAR KCQT 251147Z AUTO 00000KT 10SM OVC037 14/10 A2997 RMK AO2
SLP148 T01440100 10150 20133 56004





000
SAUS46 KLOX 251136
MTRMWS
METAR KMWS 251130Z 23500G00KT MM/03 RMK SNOW DEPTH 0.00





000
SAUS46 KLOX 251115
MTRMWS
METAR KMWS 251100Z 32009G11KT 04/02 RMK SNOW DEPTH  M





000
SAUS46 KLOX 251054
MTRMWS
METAR KMWS 251045Z 33508G12KT 03/02 RMK SNOW DEPTH  M





000
SAUS46 KLOX 251054
MTR9L2
METAR K9L2 251055Z AUTO 22007KT 10SM CLR 12/00 A2990 RMK AO2 PK WND
27031/1019 SLP120 T01170000 TSNO $





000
SAUS46 KLOX 251054
MTRMWS
METAR KMWS 251045Z 33508G12KT 03/02 RMK SNOW DEPTH  M





000
SAUS46 KLOX 251049
MTRSDB
METAR KSDB 251048Z AUTO 33017KT 10SM CLR 06/M01 A2999 RMK AO2 SLP133
T00611011





000
SAUS46 KLOX 251048
MTRCQT
METAR KCQT 251047Z AUTO 00000KT 10SM BKN037 14/11 A2997 RMK AO2
SLP149 T01390106





000
SAUS46 KLOX 251048
MTRCQT
METAR KCQT 251047Z AUTO 00000KT 10SM BKN037 14/11 A2997 RMK AO2
SLP149 T01390106





000
SAUS46 KLOX 251036
MTRMWS
METAR KMWS 251030Z 23500G00KT MM/01 RMK SNOW DEPTH  M





000
SAUS46 KLOX 251015
MTRMWS
METAR KMWS 251000Z 35506G13KT 03/01 RMK SNOW DEPTH 0.00





000
SAUS46 KLOX 250959
MTR9L2
METAR K9L2 250955Z AUTO 25017G22KT 10SM CLR 13/M01 A2989 RMK AO2 PK
WND 25035/0904 SLP116 T01331006 TSNO $





000
SAUS46 KLOX 250959
MTR9L2
METAR K9L2 250955Z AUTO 25017G22KT 10SM CLR 13/M01 A2989 RMK AO2 PK
WND 25035/0904 SLP116 T01331006 TSNO $





000
SAUS46 KLOX 250954
MTRMWS
METAR KMWS 250945Z 34006G11KT 03/02 RMK SNOW DEPTH  M





000
SAUS46 KLOX 250954
MTRMWS
METAR KMWS 250945Z 34006G11KT 03/02 RMK SNOW DEPTH  M





000
SAUS46 KLOX 250949
MTRSDB
METAR KSDB 250948Z AUTO 34013KT 10SM CLR 07/M01 A2999 RMK AO2 SLP135
T00721011





000
SAUS46 KLOX 250949
MTRSDB
METAR KSDB 250948Z AUTO 34013KT 10SM CLR 07/M01 A2999 RMK AO2 SLP135
T00721011





000
SAUS46 KLOX 250948
MTRCQT
METAR KCQT 250947Z AUTO 00000KT 10SM OVC036 14/11 A2998 RMK AO2
SLP150 T01390111





000
SAUS46 KLOX 250936
MTRMWS
METAR KMWS 250930Z 23500G00KT MM/03 RMK SNOW DEPTH  M





000
SAUS46 KLOX 250915
MTRMWS
METAR KMWS 250900Z 34004G08KT 02/03 RMK SNOW DEPTH  M





000
SAUS46 KLOX 250854
MTR9L2
METAR K9L2 250855Z AUTO 27018G24KT 10SM CLR 14/00 A2989 RMK AO2
SLP113 T01390000 58003 TSNO $





000
SAUS46 KLOX 250854
MTR9L2
METAR K9L2 250855Z AUTO 27018G24KT 10SM CLR 14/00 A2989 RMK AO2
SLP113 T01390000 58003 TSNO $





000
SAUS46 KLOX 250854
MTRMWS
METAR KMWS 250845Z 35003G12KT 02/03 RMK SNOW DEPTH  M





000
SAUS46 KLOX 250849
MTRSDB
METAR KSDB 250848Z AUTO 31011KT 10SM FEW033 08/00 A3000 RMK AO2
SLP137 T00780000 56005





000
SAUS46 KLOX 250848
MTRCQT
METAR KCQT 250847Z AUTO 00000KT 10SM CLR 13/11 A2998 RMK AO2 SLP152
T01330111 57007





000
SAUS46 KLOX 250836
MTRMWS
METAR KMWS 250830Z 23500G00KT MM/04 RMK SNOW DEPTH  M





000
SAUS46 KLOX 250815
MTRMWS
METAR KMWS 250800Z 32005G09KT 03/03 RMK SNOW DEPTH  M





000
SAUS46 KLOX 250754
MTRMWS
METAR KMWS 250745Z 01504G08KT 04/04 RMK SNOW DEPTH  M





000
SAUS46 KLOX 250754
MTR9L2
METAR K9L2 250755Z AUTO 22011G18KT 10SM CLR 13/02 A2990 RMK AO2
SLP119 T01280022 402060106 TSNO $





000
SAUS46 KLOX 250754
MTRMWS
METAR KMWS 250745Z 01504G08KT 04/04 RMK SNOW DEPTH  M





000
SAUS46 KLOX 250749
MTRSDB
METAR KSDB 250748Z AUTO VRB04KT 7SM FEW002 07/03 A3000 RMK AO2
SLP138 T00720033 401000067





000
SAUS46 KLOX 250748
MTRCQT
METAR KCQT 250747Z AUTO 00000KT 10SM CLR 14/11 A3000 RMK AO2 SLP156
T01390111 401940139





000
SAUS46 KLOX 250748
MTRCQT
METAR KCQT 250747Z AUTO 00000KT 10SM CLR 14/11 A3000 RMK AO2 SLP156
T01390111 401940139





000
SAUS46 KLOX 250736
MTRMWS
METAR KMWS 250730Z 23500G00KT MM/04 RMK SNOW DEPTH  M





000
SAUS46 KLOX 250715
MTRMWS
METAR KMWS 250700Z 32007G15KT 05/05 RMK SNOW DEPTH  M





000
SAUS46 KLOX 250712
MTRSDB
SPECI KSDB 250710Z AUTO 30009KT 9SM FEW001 SCT043 08/02 A3001 RMK
AO2 T00780022





000
SAUS46 KLOX 250707
MTRSDB
SPECI KSDB 250706Z AUTO 26007G15KT 1 1/2SM HZ SCT001 BKN043 07/03
A3001 RMK AO2 T00720033





000
SAUS46 KLOX 250705
MTRSDB
SPECI KSDB 250704Z AUTO 26007G15KT 3/4SM HZ SCT001 BKN043 07/03
A3001 RMK AO2 T00720033





000
SAUS46 KLOX 250705
MTRSDB
SPECI KSDB 250704Z AUTO 26007G15KT 3/4SM HZ SCT001 BKN043 07/03
A3001 RMK AO2 T00720033





000
SAUS46 KLOX 250701
MTRSDB
SPECI KSDB 250659Z AUTO 29011G15KT 1/4SM FG BKN001 BKN043 07/04
A3001 RMK AO2 T00670044





000
SAUS46 KLOX 250701
MTRSDB
SPECI KSDB 250659Z AUTO 29011G15KT 1/4SM FG BKN001 BKN043 07/04
A3001 RMK AO2 T00670044





000
SAUS46 KLOX 250659
MTR9L2
METAR K9L2 250655Z AUTO 23012G19KT 10SM CLR 13/03 A2990 RMK AO2 PK
WND 23026/0610 SLP119 T01280033 TSNO $





000
SAUS46 KLOX 250659
MTR9L2
METAR K9L2 250655Z AUTO 23012G19KT 10SM CLR 13/03 A2990 RMK AO2 PK
WND 23026/0610 SLP119 T01280033 TSNO $





000
SAUS46 KLOX 250654
MTRMWS
METAR KMWS 250645Z 32507G11KT 03/04 RMK SNOW DEPTH  M





000
SAUS46 KLOX 250649
MTRSDB
METAR KSDB 250648Z AUTO 25006KT 1/4SM FG SCT001 BKN043 07/05 A3001
RMK AO2 SLP143 T00670050





000
SAUS46 KLOX 250648
MTRCQT
METAR KCQT 250647Z AUTO 00000KT 10SM CLR 14/12 A3000 RMK AO2 SLP157
T01440117





000
SAUS46 KLOX 250645
MTRSDB
SPECI KSDB 250644Z AUTO 26007KT 250V320 1/4SM FG SCT001 BKN039 07/06
A3001 RMK AO2 T00670056





000
SAUS46 KLOX 250645
MTRSDB
SPECI KSDB 250644Z AUTO 26007KT 250V320 1/4SM FG SCT001 BKN039 07/06
A3001 RMK AO2 T00670056





000
SAUS46 KLOX 250640
MTRSDB
SPECI KSDB 250639Z AUTO 25004G17KT 1/2SM HZ SCT002 BKN039 07/04
A3001 RMK AO2 T00720044





000
SAUS46 KLOX 250640
MTRSDB
SPECI KSDB 250639Z AUTO 25004G17KT 1/2SM HZ SCT002 BKN039 07/04
A3001 RMK AO2 T00720044





000
SAUS46 KLOX 250636
MTRSDB
SPECI KSDB 250635Z AUTO 26007G17KT 230V300 1SM HZ FEW002 BKN039
08/04 A3001 RMK AO2 VIS 1/4V5 T00780039





000
SAUS46 KLOX 250636
MTRSDB
SPECI KSDB 250635Z AUTO 26007G17KT 230V300 1SM HZ FEW002 BKN039
08/04 A3001 RMK AO2 VIS 1/4V5 T00780039





000
SAUS46 KLOX 250636
MTRMWS
METAR KMWS 250630Z 23500G00KT MM/04 RMK SNOW DEPTH  M





000
SAUS46 KLOX 250636
MTRMWS
METAR KMWS 250630Z 23500G00KT MM/04 RMK SNOW DEPTH  M





000
SAUS46 KLOX 250631
MTRSDB
SPECI KSDB 250630Z AUTO 27009G16KT 2SM HZ FEW002 BKN037 08/03 A3001
RMK AO2 VIS 3/4V5 T00830033





000
SAUS46 KLOX 250631
MTRSDB
SPECI KSDB 250630Z AUTO 27009G16KT 2SM HZ FEW002 BKN037 08/03 A3001
RMK AO2 VIS 3/4V5 T00830033





000
SAUS46 KLOX 250615
MTRMWS
METAR KMWS 250600Z 32506G11KT 03/04 RMK SNOW DEPTH  M





000
SAUS46 KLOX 250614
MTRSDB
SPECI KSDB 250612Z AUTO 29009KT 6SM HZ OVC035 09/04 A3001 RMK AO2
T00890039





000
SAUS46 KLOX 250614
MTRSDB
SPECI KSDB 250612Z AUTO 29009KT 6SM HZ OVC035 09/04 A3001 RMK AO2
T00890039





000
SAUS46 KLOX 250609
MTRSDB
SPECI KSDB 250608Z AUTO 30007KT 1 3/4SM HZ OVC035 08/05 A3001 RMK
AO2 VIS 1/2V5 T00830050





000
SAUS46 KLOX 250604
MTRSDB
SPECI KSDB 250603Z AUTO 26004KT 3/4SM HZ OVC035 08/06 A3002 RMK AO2
VIS 1/2V5 T00830056





000
SAUS46 KLOX 250559
MTRSDB
SPECI KSDB 250558Z AUTO 23004KT 1 1/4SM HZ OVC035 09/05 A3002 RMK
AO2 T00890050





000
SAUS46 KLOX 250559
MTRSDB
SPECI KSDB 250558Z AUTO 23004KT 1 1/4SM HZ OVC035 09/05 A3002 RMK
AO2 T00890050





000
SAUS46 KLOX 250554
MTRMWS
METAR KMWS 250545Z 01502G06KT 03/04 RMK SNOW DEPTH  M





000
SAUS46 KLOX 250554
MTRMWS
METAR KMWS 250545Z 01502G06KT 03/04 RMK SNOW DEPTH  M





000
SAUS46 KLOX 250554
MTR9L2
METAR K9L2 250555Z AUTO 23018G26KT 10SM CLR 12/06 A2990 RMK AO2 PK
WND 23026/0552 SLP119 T01170061 10150 20117 50005 TSNO $





000
SAUS46 KLOX 250554
MTR9L2
METAR K9L2 250555Z AUTO 23018G26KT 10SM CLR 12/06 A2990 RMK AO2 PK
WND 23026/0552 SLP119 T01170061 10150 20117 50005 TSNO $





000
SAUS46 KLOX 250549
MTRSDB
METAR KSDB 250548Z AUTO 27009KT 230V310 10SM OVC033 09/04 A3002 RMK
AO2 SLP143 T00890044 10094 20078 50006





000
SAUS46 KLOX 250548
MTRCQT
METAR KCQT 250547Z AUTO 28003KT 10SM FEW035 BKN050 15/11 A3001 RMK
AO2 SLP160 T01500111 10178 20150 50008





000
SAUS46 KLOX 250536
MTRMWS
METAR KMWS 250530Z 03001G04KT 05/05 RMK SNOW DEPTH  M





000
SAUS46 KLOX 250531
MTRSDB
SPECI KSDB 250530Z AUTO 26007G17KT 220V280 5SM HZ SCT026 OVC032
09/05 A3003 RMK AO2 T00890050





000
SAUS46 KLOX 250527
MTRSDB
SPECI KSDB 250526Z AUTO 30010G17KT 1 1/2SM HZ SCT026 OVC032 09/05
A3003 RMK AO2 VIS 1/2V5 T00890050





000
SAUS46 KLOX 250517
MTRSDB
SPECI KSDB 250516Z AUTO 27007KT 220V300 1 1/4SM BR FEW001 OVC026
08/06 A3003 RMK AO2 T00830061





000
SAUS46 KLOX 250517
MTRSDB
SPECI KSDB 250516Z AUTO 27007KT 220V300 1 1/4SM BR FEW001 OVC026
08/06 A3003 RMK AO2 T00830061





000
SAUS46 KLOX 250515
MTRMWS
METAR KMWS 250500Z 33501G03KT 04/04 RMK SNOW DEPTH  M





000
SAUS46 KLOX 250515
MTRMWS
METAR KMWS 250500Z 33501G03KT 04/04 RMK SNOW DEPTH  M





000
SAUS46 KLOX 250508
MTRSDB
SPECI KSDB 250507Z AUTO VRB06KT 3SM HZ FEW001 OVC026 09/06 A3003 RMK
AO2 T00890056





000
SAUS46 KLOX 250508
MTRSDB
SPECI KSDB 250507Z AUTO VRB06KT 3SM HZ FEW001 OVC026 09/06 A3003 RMK
AO2 T00890056





000
SAUS46 KLOX 250506
MTRSDB
SPECI KSDB 250504Z AUTO 20006KT 1/2SM HZ SCT001 OVC026 09/06 A3002
RMK AO2 T00890056





000
SAUS46 KLOX 250506
MTRSDB
SPECI KSDB 250504Z AUTO 20006KT 1/2SM HZ SCT001 OVC026 09/06 A3002
RMK AO2 T00890056





000
SAUS46 KLOX 250458
MTR9L2
METAR K9L2 250455Z AUTO 23017G25KT 10SM CLR 12/07 A2991 RMK AO2 PK
WND 23026/0428 SLP122 T01220067 TSNO $





000
SAUS46 KLOX 250454
MTRMWS
METAR KMWS 250445Z 25501G02KT 05/06 RMK SNOW DEPTH  M





000
SAUS46 KLOX 250449
MTRSDB
METAR KSDB 250448Z AUTO 20006KT 1/4SM FG BKN001 OVC028 08/07 A3002
RMK AO2 SLP146 T00780067





000
SAUS46 KLOX 250448
MTRCQT
METAR KCQT 250447Z AUTO VRB03KT 10SM OVC050 16/11 A3001 RMK AO2
SLP162 T01560111





000
SAUS46 KLOX 250436
MTRMWS
METAR KMWS 250430Z 23500G00KT MM/04 RMK SNOW DEPTH  M





000
SAUS46 KLOX 250436
MTRMWS
METAR KMWS 250430Z 23500G00KT MM/04 RMK SNOW DEPTH  M





000
SAUS46 KLOX 250415
MTRMWS
METAR KMWS 250400Z 32003G05KT 04/04 RMK SNOW DEPTH  M





000
SAUS46 KLOX 250415
MTRMWS
METAR KMWS 250400Z 32003G05KT 04/04 RMK SNOW DEPTH  M





000
SAUS46 KLOX 250355
MTR9L2
METAR K9L2 250355Z AUTO 23017G24KT 10SM CLR 12/07 A2990 RMK AO2
SLP122 T01220067 TSNO $





000
SAUS46 KLOX 250354
MTRMWS
METAR KMWS 250345Z 31502G03KT 05/06 RMK SNOW DEPTH  M





000
SAUS46 KLOX 250349
MTRSDB
METAR KSDB 250348Z AUTO 22006KT M1/4SM FG VV001 08/07 A3001 RMK AO2
SLP141 T00780067





000
SAUS46 KLOX 250348
MTRCQT
METAR KCQT 250347Z AUTO 28003KT 10SM BKN037 OVC055 16/11 A3000 RMK
AO2 SLP157 T01560106





000
SAUS46 KLOX 250336
MTRMWS
METAR KMWS 250330Z 23500G00KT MM/06 RMK SNOW DEPTH  M





000
SAUS46 KLOX 250315
MTRMWS
METAR KMWS 250300Z 28002G02KT 05/06 RMK SNOW DEPTH  M





000
SAUS46 KLOX 250315
MTRMWS
METAR KMWS 250300Z 28002G02KT 05/06 RMK SNOW DEPTH  M





000
SAUS46 KLOX 250255
MTR9L2
METAR K9L2 250255Z AUTO 24017G25KT 10SM CLR 13/07 A2988 RMK AO2 PK
WND 22028/0216 SLP114 T01330067 55000 TSNO $





000
SAUS46 KLOX 250255
MTR9L2
METAR K9L2 250255Z AUTO 24017G25KT 10SM CLR 13/07 A2988 RMK AO2 PK
WND 22028/0216 SLP114 T01330067 55000 TSNO $





000
SAUS46 KLOX 250254
MTRMWS
METAR KMWS 250245Z 34501G02KT 05/05 RMK SNOW DEPTH  M





000
SAUS46 KLOX 250254
MTRMWS
METAR KMWS 250245Z 34501G02KT 05/05 RMK SNOW DEPTH  M





000
SAUS46 KLOX 250249
MTRSDB
METAR KSDB 250248Z AUTO 20009KT 1/4SM FG VV001 08/07 A3000 RMK AO2
SLP138 T00780067 53002





000
SAUS46 KLOX 250248
MTRCQT
METAR KCQT 250247Z AUTO 00000KT 10SM BKN035 BKN060 16/11 A2998 RMK
AO2 SLP152 T01610106 50002





000
SAUS46 KLOX 250236
MTRMWS
METAR KMWS 250230Z 23500G00KT MM/05 RMK SNOW DEPTH  M





000
SAUS46 KLOX 250236
MTRMWS
METAR KMWS 250230Z 23500G00KT MM/05 RMK SNOW DEPTH  M





000
SAUS46 KLOX 250215
MTRMWS
METAR KMWS 250200Z 22503G03KT 05/05 RMK SNOW DEPTH  M





000
SAUS46 KLOX 250215
MTRMWS
METAR KMWS 250200Z 22503G03KT 05/05 RMK SNOW DEPTH  M





000
SAUS46 KLOX 250155
MTR9L2
METAR K9L2 250155Z AUTO 23019G25KT 10SM CLR 14/07 A2987 RMK AO2 PK
WND 24029/0132 SLP113 T01440067 TSNO $





000
SAUS46 KLOX 250155
MTR9L2
METAR K9L2 250155Z AUTO 23019G25KT 10SM CLR 14/07 A2987 RMK AO2 PK
WND 24029/0132 SLP113 T01440067 TSNO $





000
SAUS46 KLOX 250154
MTRMWS
METAR KMWS 250145Z 22004G05KT 05/05 RMK SNOW DEPTH  M





000
SAUS46 KLOX 250149
MTRCQT
METAR KCQT 250147Z AUTO VRB03KT 10SM FEW033 OVC060 17/11 A2998 RMK
AO2 SLP152 T01670106





000
SAUS46 KLOX 250149
MTRSDB
METAR KSDB 250148Z AUTO 21007KT 170V240 1/4SM FG BKN001 OVC028 08/07
A2999 RMK AO2 SLP135 T00830067





000
SAUS46 KLOX 250145
MTRSDB
SPECI KSDB 250144Z AUTO 20009KT 1/2SM FG BKN001 OVC026 09/07 A2999
RMK AO2 T00890072





000
SAUS46 KLOX 250138
MTRSDB
SPECI KSDB 250137Z AUTO 21008KT 1/4SM FG BKN001 BKN027 OVC031 09/07
A2999 RMK AO2 T00890072





000
SAUS46 KLOX 250138
MTRSDB
SPECI KSDB 250137Z AUTO 21008KT 1/4SM FG BKN001 BKN027 OVC031 09/07
A2999 RMK AO2 T00890072





000
SAUS46 KLOX 250136
MTRMWS
METAR KMWS 250130Z 23500G00KT MM/06 RMK SNOW DEPTH  M





000
SAUS46 KLOX 250136
MTRMWS
METAR KMWS 250130Z 23500G00KT MM/06 RMK SNOW DEPTH  M





000
SAUS46 KLOX 250127
MTRSDB
SPECI KSDB 250126Z AUTO 20009KT 1/4SM FG BKN002 OVC027 09/07 A2999
RMK AO2 T00890072





000
SAUS46 KLOX 250115
MTRMWS
METAR KMWS 250100Z 22503G05KT 05/05 RMK SNOW DEPTH  M





000
SAUS46 KLOX 250103
MTRSDB
SPECI KSDB 250103Z AUTO 22007KT 3/4SM BR BKN002 OVC026 09/07 A2999
RMK AO2 T00940072





000
SAUS46 KLOX 250055
MTR9L2
METAR K9L2 250055Z AUTO 24021G30KT 10SM CLR 15/07 A2987 RMK AO2 PK
WND 23031/0036 SLP113 T01500067 TSNO $





000
SAUS46 KLOX 250054
MTRMWS
METAR KMWS 250045Z 24006G08KT 05/05 RMK SNOW DEPTH  M





000
SAUS46 KLOX 250054
MTRSDB
SPECI KSDB 250052Z AUTO 21007KT 1/4SM FG BKN002 OVC026 09/07 A2999
RMK AO2 T00890072





000
SAUS46 KLOX 250049
MTRSDB
METAR KSDB 250048Z AUTO 21010KT 1/2SM FG BKN002 OVC028 09/07 A2999
RMK AO2 SLP135 T00890072





000
SAUS46 KLOX 250048
MTRCQT
METAR KCQT 250047Z AUTO 00000KT 10SM FEW047 BKN060 17/11 A2998 RMK
AO2 SLP151 T01670106





000
SAUS46 KLOX 250048
MTRCQT
METAR KCQT 250047Z AUTO 00000KT 10SM FEW047 BKN060 17/11 A2998 RMK
AO2 SLP151 T01670106





000
SAUS46 KLOX 250045
MTRSDB
SPECI KSDB 250043Z AUTO 22008KT 3/4SM BR BKN002 BKN025 OVC030 09/07
A2999 RMK AO2 T00890072





000
SAUS46 KLOX 250045
MTRSDB
SPECI KSDB 250043Z AUTO 22008KT 3/4SM BR BKN002 BKN025 OVC030 09/07
A2999 RMK AO2 T00890072





000
SAUS46 KLOX 250042
MTRSDB
SPECI KSDB 250040Z AUTO 21008KT 1SM BR BKN001 OVC028 09/07 A2999 RMK
AO2 T00890072





000
SAUS46 KLOX 250036
MTRMWS
METAR KMWS 250030Z 23500G00KT MM/06 RMK SNOW DEPTH  M





000
SAUS46 KLOX 250025
MTRSDB
SPECI KSDB 250024Z AUTO 22006KT 1/2SM FG BKN001 OVC031 09/07 A2999
RMK AO2 T00940072





000
SAUS46 KLOX 250015
MTRMWS
METAR KMWS 250000Z 23003G04KT 06/07 RMK SNOW DEPTH  M





000
SAUS46 KLOX 242354
MTRMWS
METAR KMWS 242345Z 25002G04KT 06/07 RMK SNOW DEPTH  M





000
SAUS46 KLOX 242354
MTR9L2
METAR K9L2 242355Z AUTO 22021G28KT 10SM CLR 15/07 A2988 RMK AO2 PK
WND 23033/2335 SLP117 T01500072 10206 20150 51002 TSNO $





000
SAUS46 KLOX 242354
MTR9L2
METAR K9L2 242355Z AUTO 22021G28KT 10SM CLR 15/07 A2988 RMK AO2 PK
WND 23033/2335 SLP117 T01500072 10206 20150 51002 TSNO $





000
SAUS46 KLOX 242354
MTRMWS
METAR KMWS 242345Z 25002G04KT 06/07 RMK SNOW DEPTH  M





000
SAUS46 KLOX 242349
MTRSDB
METAR KSDB 242348Z AUTO 20009KT M1/4SM FG VV001 09/07 A2999 RMK AO2
SLP134 T00940072 10100 20078 56003





000
SAUS46 KLOX 242348
MTRCQT
METAR KCQT 242347Z AUTO 00000KT 10SM OVC049 18/11 A2998 RMK AO2
SLP150 T01780106 10194 20161 58004





000
SAUS46 KLOX 242336
MTRMWS
METAR KMWS 242330Z 23500G00KT MM/07 RMK SNOW DEPTH 1.00





000
SAUS46 KLOX 242315
MTRMWS
METAR KMWS 242300Z 23505G06KT 06/07 RMK SNOW DEPTH 1.00





000
SAUS46 KLOX 242315
MTRMWS
METAR KMWS 242300Z 23505G06KT 06/07 RMK SNOW DEPTH 1.00





000
SAUS46 KLOX 242258
MTR9L2
METAR K9L2 242255Z AUTO 24025G32KT 10SM CLR 16/07 A2988 RMK AO2 PK
WND 24034/2219 SLP114 T01560067 TSNO $





000
SAUS46 KLOX 242254
MTRMWS
METAR KMWS 242245Z 23004G05KT 06/06 RMK SNOW DEPTH 1.00





000
SAUS46 KLOX 242249
MTRSDB
METAR KSDB 242248Z AUTO VRB05KT M1/4SM FG VV001 09/08 A2999 RMK AO2
SLP133 T00940078





000
SAUS46 KLOX 242249
MTRCQT
METAR KCQT 242247Z AUTO 00000KT 10SM OVC030 18/11 A2998 RMK AO2
SLP150 T01780106





000
SAUS46 KLOX 242249
MTRCQT
METAR KCQT 242247Z AUTO 00000KT 10SM OVC030 18/11 A2998 RMK AO2
SLP150 T01780106





000
SAUS46 KLOX 242249
MTRSDB
METAR KSDB 242248Z AUTO VRB05KT M1/4SM FG VV001 09/08 A2999 RMK AO2
SLP133 T00940078





000
SAUS46 KLOX 242236
MTRMWS
METAR KMWS 242230Z 23504G06KT 06/06 RMK SNOW DEPTH 1.00





000
SAUS46 KLOX 242215
MTRMWS
METAR KMWS 242200Z 23005G08KT 06/07 RMK SNOW DEPTH 1.00





000
SAUS46 KLOX 242215
MTRMWS
METAR KMWS 242200Z 23005G08KT 06/07 RMK SNOW DEPTH 1.00





000
SAUS46 KLOX 242158
MTR9L2
METAR K9L2 242155Z AUTO 24022G30KT 10SM FEW025 17/06 A2988 RMK AO2
PK WND 24034/2114 SLP115 T01720061 $





000
SAUS46 KLOX 242158
MTR9L2
METAR K9L2 242155Z AUTO 24022G30KT 10SM FEW025 17/06 A2988 RMK AO2
PK WND 24034/2114 SLP115 T01720061 $





000
SAUS46 KLOX 242154
MTRMWS
METAR KMWS 242145Z 22505G07KT 06/07 RMK SNOW DEPTH 1.00





000
SAUS46 KLOX 242149
MTRSDB
METAR KSDB 242148Z AUTO 18010G14KT M1/4SM FG VV001 09/07 A3000 RMK
AO2 SLP136 T00890072





000
SAUS46 KLOX 242148
MTRCQT
METAR KCQT 242147Z AUTO VRB03KT 10SM OVC031 18/11 A2999 RMK AO2
SLP153 T01830111





000
SAUS46 KLOX 242148
MTRCQT
METAR KCQT 242147Z AUTO VRB03KT 10SM OVC031 18/11 A2999 RMK AO2
SLP153 T01830111





000
SAUS46 KLOX 242136
MTRCQT
SPECI KCQT 242135Z AUTO VRB03KT 10SM OVC031 18/11 A2999 RMK AO2
T01780106





000
SAUS46 KLOX 242136
MTRMWS
METAR KMWS 242130Z 23500G00KT MM/08 RMK SNOW DEPTH 1.00





000
SAUS46 KLOX 242130
MTRCQT
SPECI KCQT 242129Z AUTO VRB03KT 10SM BKN029 OVC035 18/11 A2999 RMK
AO2 T01830111





000
SAUS46 KLOX 242115
MTRMWS
METAR KMWS 242100Z 23504G06KT 08/08 RMK SNOW DEPTH 1.00





000
SAUS46 KLOX 242055
MTRCQT
SPECI KCQT 242054Z AUTO 00000KT 10SM SCT028 BKN037 18/11 A2999 RMK
AO2 T01830111





000
SAUS46 KLOX 242055
MTRCQT
SPECI KCQT 242054Z AUTO 00000KT 10SM SCT028 BKN037 18/11 A2999 RMK
AO2 T01830111





000
SAUS46 KLOX 242054
MTRMWS
METAR KMWS 242045Z 24004G05KT 07/08 RMK SNOW DEPTH 1.00





000
SAUS46 KLOX 242054
MTR9L2
METAR K9L2 242055Z AUTO 24023G30KT 10SM CLR 19/06 A2988 RMK AO2 PK
WND 25032/2044 SLP111 T01940056 58006 $





000
SAUS46 KLOX 242049
MTRSDB
METAR KSDB 242048Z AUTO 18011G19KT 1/4SM FG VV001 09/07 A3000 RMK
AO2 SLP138 T00890072 55001





000
SAUS46 KLOX 242048
MTRCQT
METAR KCQT 242047Z AUTO 10SM BKN028 BKN041 19/11 A2999 RMK AO2
SLP154 T01940111 58008





000
SAUS46 KLOX 242045
MTRCQT
SPECI KCQT 242043Z AUTO VRB03KT 10SM BKN028 BKN032 19/12 A2999 RMK
AO2 T01940117





000
SAUS46 KLOX 242045
MTRCQT
SPECI KCQT 242043Z AUTO VRB03KT 10SM BKN028 BKN032 19/12 A2999 RMK
AO2 T01940117





000
SAUS46 KLOX 242039
MTRCQT
SPECI KCQT 242037Z AUTO 00000KT 10SM SCT026 BKN032 BKN050 19/12
A2999 RMK AO2 T01940117





000
SAUS46 KLOX 242036
MTRMWS
METAR KMWS 242030Z 23500G00KT MM/08 RMK SNOW DEPTH 1.00





000
SAUS46 KLOX 242035
MTRCQT
SPECI KCQT 242034Z AUTO VRB03KT 10SM BKN026 BKN032 BKN050 19/11
A2999 RMK AO2 T01890111





000
SAUS46 KLOX 242016
MTRSDB
SPECI KSDB 242015Z AUTO 22008G16KT 1/4SM FG VV001 09/07 A3000 RMK
AO2 T00890067





000
SAUS46 KLOX 242016
MTRSDB
SPECI KSDB 242015Z AUTO 22008G16KT 1/4SM FG VV001 09/07 A3000 RMK
AO2 T00890067





000
SAUS46 KLOX 242015
MTRCQT
SPECI KCQT 242014Z AUTO VRB03KT 10SM SCT023 BKN030 OVC050 19/12
A2999 RMK AO2 T01890117





000
SAUS46 KLOX 242015
MTRMWS
METAR KMWS 242000Z 19502G03KT 07/07 RMK SNOW DEPTH 1.00





000
SAUS46 KLOX 242009
MTRCQT
SPECI KCQT 242007Z AUTO VRB03KT 10SM BKN023 OVC030 18/12 A2999 RMK
AO2 T01830117





000
SAUS46 KLOX 242009
MTRCQT
SPECI KCQT 242007Z AUTO VRB03KT 10SM BKN023 OVC030 18/12 A2999 RMK
AO2 T01830117





000
SAUS46 KLOX 241954
MTRMWS
METAR KMWS 241945Z 23504G05KT 07/07 RMK SNOW DEPTH 1.00





000
SAUS46 KLOX 241954
MTR9L2
METAR K9L2 241955Z AUTO 26022G28KT 10SM FEW025 19/05 A2989 RMK AO2
PK WND 24033/1940 SLP116 T01940050 TSNO $





000
SAUS46 KLOX 241954
MTR9L2
METAR K9L2 241955Z AUTO 26022G28KT 10SM FEW025 19/05 A2989 RMK AO2
PK WND 24033/1940 SLP116 T01940050 TSNO $





000
SAUS46 KLOX 241952
MTRCQT
SPECI KCQT 241951Z AUTO 00000KT 10SM FEW023 BKN030 OVC037 18/12
A3000 RMK AO2 T01830117





000
SAUS46 KLOX 241952
MTRCQT
SPECI KCQT 241951Z AUTO 00000KT 10SM FEW023 BKN030 OVC037 18/12
A3000 RMK AO2 T01830117





000
SAUS46 KLOX 241949
MTRSDB
METAR KSDB 241948Z AUTO 17016KT 1/2SM FG VV001 09/07 A2999 RMK AO2
SLP133 T00940072





000
SAUS46 KLOX 241948
MTRCQT
METAR KCQT 241947Z AUTO VRB03KT 10SM SCT023 BKN028 OVC034 18/12
A3000 RMK AO2 SLP157 T01830117





000
SAUS46 KLOX 241948
MTRCQT
METAR KCQT 241947Z AUTO VRB03KT 10SM SCT023 BKN028 OVC034 18/12
A3000 RMK AO2 SLP157 T01830117





000
SAUS46 KLOX 241936
MTRMWS
METAR KMWS 241930Z 23500G00KT MM/08 RMK SNOW DEPTH 1.00





000
SAUS46 KLOX 241915
MTRMWS
METAR KMWS 241900Z 23502G04KT 07/08 RMK SNOW DEPTH 1.00





000
SAUS46 KLOX 241854
MTR9L2
METAR K9L2 241855Z AUTO 25024G33KT 10SM SCT027 BKN032 18/04 A2989
RMK AO2 PK WND 25033/1855 SLP117 T01780044 TSNO $





000
SAUS46 KLOX 241854
MTRMWS
METAR KMWS 241845Z 25502G03KT 07/07 RMK SNOW DEPTH 1.00





000
SAUS46 KLOX 241851
MTR9L2
SPECI K9L2 241848Z AUTO 24022G29KT 10SM BKN029 18/04 A2990 RMK AO2
PK WND 25031/1813 TSNO $





000
SAUS46 KLOX 241849
MTRSDB
METAR KSDB 241848Z AUTO 19014G19KT 1/4SM FG VV001 08/07 A3000 RMK
AO2 SLP137 T00830067





000
SAUS46 KLOX 241848
MTRCQT
METAR KCQT 241847Z AUTO 00000KT 10SM SCT021 OVC034 17/12 A3001 RMK
AO2 SLP163 T01670117





000
SAUS46 KLOX 241848
MTRCQT
METAR KCQT 241847Z AUTO 00000KT 10SM SCT021 OVC034 17/12 A3001 RMK
AO2 SLP163 T01670117





000
SAUS46 KLOX 241836
MTRMWS
METAR KMWS 241830Z 23500G00KT MM/06 RMK SNOW DEPTH 1.00





000
SAUS46 KLOX 241815
MTRMWS
METAR KMWS 241800Z 24503G05KT 06/06 RMK SNOW DEPTH 1.00





000
SAUS46 KLOX 241815
MTRMWS
METAR KMWS 241800Z 24503G05KT 06/06 RMK SNOW DEPTH 1.00





000
SAUS46 KLOX 241754
MTR9L2
METAR K9L2 241755Z AUTO 29018G24KT 10SM FEW023 19/06 A2990 RMK AO2
PK WND 29026/1739 WSHFT 1643 SLP118 T01890056 10189 20106 53013 TSNO
$





000
SAUS46 KLOX 241754
MTRMWS
METAR KMWS 241745Z 25502G04KT 07/07 RMK SNOW DEPTH 1.00





000
SAUS46 KLOX 241754
MTR9L2
METAR K9L2 241755Z AUTO 29018G24KT 10SM FEW023 19/06 A2990 RMK AO2
PK WND 29026/1739 WSHFT 1643 SLP118 T01890056 10189 20106 53013 TSNO
$





000
SAUS46 KLOX 241749
MTR9L2
SPECI K9L2 241750Z AUTO 29019G23KT 10SM SCT023 18/06 A2989 RMK AO2
PK WND 29026/1739 WSHFT 1643 TSNO $





000
SAUS46 KLOX 241749
MTRCQT
METAR KCQT 241747Z AUTO 00000KT 10SM OVC032 16/11 A3001 RMK AO2
SLP163 T01610111 10167 20144 53017





000
SAUS46 KLOX 241749
MTRSDB
METAR KSDB 241748Z AUTO 19009KT M1/4SM FG VV001 08/07 A3001 RMK AO2
SLP141 T00780067 10078 20067 52014





000
SAUS46 KLOX 241736
MTRMWS
METAR KMWS 241730Z 23500G00KT MM/06 RMK SNOW DEPTH 1.00





000
SAUS46 KLOX 241723
MTR9L2
SPECI K9L2 241720Z AUTO 25018G23KT 10SM BKN023 18/06 A2989 RMK AO2
WSHFT 1643 TSNO $





000
SAUS46 KLOX 241723
MTR9L2
SPECI K9L2 241720Z AUTO 25018G23KT 10SM BKN023 18/06 A2989 RMK AO2
WSHFT 1643 TSNO $





000
SAUS46 KLOX 241716
MTRCQT
SPECI KCQT 241715Z AUTO 00000KT 10SM SCT025 BKN037 OVC045 17/11
A3000 RMK AO2 T01670111





000
SAUS46 KLOX 241716
MTRCQT
SPECI KCQT 241715Z AUTO 00000KT 10SM SCT025 BKN037 OVC045 17/11
A3000 RMK AO2 T01670111





000
SAUS46 KLOX 241715
MTRMWS
METAR KMWS 241700Z 21002G03KT 07/07 RMK SNOW DEPTH 1.00





000
SAUS46 KLOX 241715
MTRMWS
METAR KMWS 241700Z 21002G03KT 07/07 RMK SNOW DEPTH 1.00





000
SAUS46 KLOX 241703
MTR9L2
SPECI K9L2 241700Z AUTO 27019G27KT 10SM FEW020 18/06 A2988 RMK AO2
WSHFT 1643 TSNO $





000
SAUS46 KLOX 241655
MTR9L2
METAR K9L2 241655Z AUTO 28021G27KT 10SM FEW020 18/06 A2988 RMK AO2
PK WND 28027/1652 SLP114 T01780061 TSNO $





000
SAUS46 KLOX 241654
MTRMWS
METAR KMWS 241645Z 26002G03KT 06/07 RMK SNOW DEPTH 0.00





000
SAUS46 KLOX 241654
MTRMWS
METAR KMWS 241645Z 26002G03KT 06/07 RMK SNOW DEPTH 0.00





000
SAUS46 KLOX 241649
MTRSDB
METAR KSDB 241648Z AUTO 21010KT M1/4SM FG VV001 07/06 A2999 RMK AO2
SLP136 T00720061





000
SAUS46 KLOX 241648
MTRCQT
METAR KCQT 241647Z AUTO 00000KT 10SM BKN023 OVC028 17/11 A2999 RMK
AO2 SLP156 T01670111





000
SAUS46 KLOX 241636
MTRMWS
METAR KMWS 241630Z 23500G00KT MM/06 RMK SNOW DEPTH  M





000
SAUS46 KLOX 241630
MTRCQT
SPECI KCQT 241628Z AUTO 00000KT 10SM BKN023 OVC036 17/11 A2999 RMK
AO2 T01670111





000
SAUS46 KLOX 241630
MTRCQT
SPECI KCQT 241628Z AUTO 00000KT 10SM BKN023 OVC036 17/11 A2999 RMK
AO2 T01670111





000
SAUS46 KLOX 241615
MTRMWS
METAR KMWS 241600Z 27001G03KT 07/07 RMK SNOW DEPTH  M





000
SAUS46 KLOX 241615
MTRMWS
METAR KMWS 241600Z 27001G03KT 07/07 RMK SNOW DEPTH  M





000
SAUS46 KLOX 241554
MTRMWS
METAR KMWS 241545Z 19001G02KT 05/06 RMK SNOW DEPTH  M





000
SAUS46 KLOX 241554
MTR9L2
METAR K9L2 241555Z AUTO 25019G24KT 10SM CLR 16/07 A2985 RMK AO2 PK
WND 23030/1523 SLP104 T01560067 TSNO $





000
SAUS46 KLOX 241549
MTRSDB
METAR KSDB 241548Z AUTO 21010KT M1/4SM FG VV001 07/06 A2998 RMK AO2
SLP130 T00720061





000
SAUS46 KLOX 241548
MTRCQT
METAR KCQT 241547Z AUTO VRB03KT 10SM BKN033 BKN047 17/11 A2998 RMK
AO2 SLP150 T01670106





000
SAUS46 KLOX 241536
MTRMWS
METAR KMWS 241530Z 22501G03KT 05/06 RMK SNOW DEPTH  M





000
SAUS46 KLOX 241536
MTRMWS
METAR KMWS 241530Z 22501G03KT 05/06 RMK SNOW DEPTH  M





000
SAUS46 KLOX 241515
MTRMWS
METAR KMWS 241500Z 28001G02KT 06/06 RMK SNOW DEPTH  M





000
SAUS46 KLOX 241500
MTR9L2
METAR K9L2 241455Z AUTO 23020G25KT 10SM CLR 14/07 A2985 RMK AO2 PK
WND 24030/1437 SLP104 T01390067 53012 TSNO $





000
SAUS46 KLOX 241454
MTRMWS
METAR KMWS 241445Z 35501G01KT 05/06 RMK SNOW DEPTH  M





000
SAUS46 KLOX 241454
MTRMWS
METAR KMWS 241445Z 35501G01KT 05/06 RMK SNOW DEPTH  M





000
SAUS46 KLOX 241449
MTRSDB
METAR KSDB 241448Z AUTO 21011KT M1/4SM FG VV001 07/06 A2996 RMK AO2
SLP124 T00720061 53010





000
SAUS46 KLOX 241449
MTRSDB
METAR KSDB 241448Z AUTO 21011KT M1/4SM FG VV001 07/06 A2996 RMK AO2
SLP124 T00720061 53010





000
SAUS46 KLOX 241448
MTRCQT
METAR KCQT 241447Z AUTO 00000KT 10SM FEW033 16/11 A2996 RMK AO2
SLP146 T01560111 53016





000
SAUS46 KLOX 241448
MTRCQT
METAR KCQT 241447Z AUTO 00000KT 10SM FEW033 16/11 A2996 RMK AO2
SLP146 T01560111 53016





000
SAUS46 KLOX 241436
MTRMWS
METAR KMWS 241430Z 23500G00KT MM/06 RMK SNOW DEPTH  M





000
SAUS46 KLOX 241436
MTRMWS
METAR KMWS 241430Z 23500G00KT MM/06 RMK SNOW DEPTH  M





000
SAUS46 KLOX 241415
MTRMWS
METAR KMWS 241400Z 04502G03KT 03/04 RMK SNOW DEPTH  M





000
SAUS46 KLOX 241400
MTR9L2
METAR K9L2 241355Z AUTO 22015G23KT 10SM CLR 12/06 A2984 RMK AO2
SLP101 T01170061 TSNO $





000
SAUS46 KLOX 241354
MTRMWS
METAR KMWS 241345Z 20001G01KT 03/04 RMK SNOW DEPTH  M





000
SAUS46 KLOX 241354
MTRMWS
METAR KMWS 241345Z 20001G01KT 03/04 RMK SNOW DEPTH  M





000
SAUS46 KLOX 241349
MTRSDB
METAR KSDB 241348Z AUTO 23009G19KT M1/4SM FG VV001 07/06 A2995 RMK
AO2 SLP118 T00670061





000
SAUS46 KLOX 241348
MTRCQT
METAR KCQT 241347Z AUTO 00000KT 10SM SCT047 15/11 A2995 RMK AO2
SLP139 T01500106





000
SAUS46 KLOX 241336
MTRMWS
METAR KMWS 241330Z 23500G00KT MM/04 RMK SNOW DEPTH  M





000
SAUS46 KLOX 241336
MTRMWS
METAR KMWS 241330Z 23500G00KT MM/04 RMK SNOW DEPTH  M





000
SAUS46 KLOX 241315
MTRMWS
METAR KMWS 241300Z 31002G03KT 04/04 RMK SNOW DEPTH  M





000
SAUS46 KLOX 241315
MTRMWS
METAR KMWS 241300Z 31002G03KT 04/04 RMK SNOW DEPTH  M





000
SAUS46 KLOX 241255
MTR9L2
METAR K9L2 241255Z AUTO 23016G25KT 10SM CLR 11/06 A2982 RMK AO2
SLP094 T01110061 TSNO $





000
SAUS46 KLOX 241255
MTR9L2
METAR K9L2 241255Z AUTO 23016G25KT 10SM CLR 11/06 A2982 RMK AO2
SLP094 T01110061 TSNO $





000
SAUS46 KLOX 241254
MTRMWS
METAR KMWS 241245Z 23500G00KT MM/04 RMK SNOW DEPTH  M





000
SAUS45 KLOX 241254
MTRCQT
METAR KCQT 241247Z AUTO 00000KT 10SM OVC045 15/10 A2993 RMK AO2
SLP134 T01500100





000
SAUS46 KLOX 241250
MTRSDB
METAR KSDB 241248Z AUTO 20012G17KT M1/4SM FG VV001 07/06 A2993 RMK
AO2 SLP106 T00670056





000
SAUS46 KLOX 241250
MTRSDB
METAR KSDB 241248Z AUTO 20012G17KT M1/4SM FG VV001 07/06 A2993 RMK
AO2 SLP106 T00670056





000
SAUS46 KLOX 241236
MTRMWS
METAR KMWS 241230Z 23500G00KT MM/04 RMK SNOW DEPTH  M





000
SAUS46 KLOX 241236
MTRMWS
METAR KMWS 241230Z 23500G00KT MM/04 RMK SNOW DEPTH  M





000
SAUS46 KLOX 241215
MTRMWS
METAR KMWS 241200Z 26501G01KT 04/04 RMK SNOW DEPTH  M





000
SAUS46 KLOX 241215
MTRMWS
METAR KMWS 241200Z 26501G01KT 04/04 RMK SNOW DEPTH  M





000
SAUS46 KLOX 241155
MTR9L2
METAR K9L2 241155Z AUTO 23016KT 10SM CLR 11/06 A2982 RMK AO2 SLP091
T01060061 10122 20106 57001 TSNO $





000
SAUS46 KLOX 241155
MTR9L2
METAR K9L2 241155Z AUTO 23016KT 10SM CLR 11/06 A2982 RMK AO2 SLP091
T01060061 10122 20106 57001 TSNO $





000
SAUS46 KLOX 241154
MTRMWS
METAR KMWS 241145Z 23500G00KT MM/04 RMK SNOW DEPTH  M





000
SAUS46 KLOX 241154
MTRMWS
METAR KMWS 241145Z 23500G00KT MM/04 RMK SNOW DEPTH  M





000
SAUS46 KLOX 241149
MTRSDB
METAR KSDB 241148Z AUTO 22010G17KT M1/4SM FG VV001 07/06 A2992 RMK
AO2 SLP105 T00720061 10078 20072 56004





000
SAUS46 KLOX 241149
MTRSDB
METAR KSDB 241148Z AUTO 22010G17KT M1/4SM FG VV001 07/06 A2992 RMK
AO2 SLP105 T00720061 10078 20072 56004





000
SAUS46 KLOX 241149
MTRCQT
METAR KCQT 241147Z AUTO 00000KT 10SM OVC045 15/10 A2992 RMK AO2
SLP129 T01500100 10150 20144 58004





000
SAUS46 KLOX 241149
MTRCQT
METAR KCQT 241147Z AUTO 00000KT 10SM OVC045 15/10 A2992 RMK AO2
SLP129 T01500100 10150 20144 58004





000
SAUS46 KLOX 241136
MTRMWS
METAR KMWS 241130Z 23500G00KT MM/04 RMK SNOW DEPTH  M





000
SAUS46 KLOX 241115
MTRMWS
METAR KMWS 241100Z 24002G03KT 04/04 RMK SNOW DEPTH  M





000
SAUS46 KLOX 241115
MTRMWS
METAR KMWS 241100Z 24002G03KT 04/04 RMK SNOW DEPTH  M





000
SAUS46 KLOX 241055
MTR9L2
METAR K9L2 241055Z AUTO 23017KT 10SM CLR 11/06 A2982 RMK AO2 SLP091
T01110061 TSNO $





000
SAUS46 KLOX 241055
MTR9L2
METAR K9L2 241055Z AUTO 23017KT 10SM CLR 11/06 A2982 RMK AO2 SLP091
T01110061 TSNO $





000
SAUS46 KLOX 241054
MTRMWS
METAR KMWS 241045Z 25001G01KT 04/04 RMK SNOW DEPTH  M





000
SAUS45 KLOX 241054
MTRCQT
METAR KCQT 241047Z AUTO 00000KT 10SM OVC045 15/10 A2993 RMK AO2
SLP132 T01500100





000
SAUS46 KLOX 241051
MTRSDB
METAR KSDB 241048Z AUTO 20012KT 1/4SM FG VV001 08/06 A2992 RMK AO2
SLP105 T00780061





000
SAUS46 KLOX 241045
MTRSDB
SPECI KSDB 241043Z AUTO 21010KT 1/4SM FG VV001 08/06 A2992 RMK AO2
T00780061





000
SAUS46 KLOX 241045
MTRSDB
SPECI KSDB 241043Z AUTO 21010KT 1/4SM FG VV001 08/06 A2992 RMK AO2
T00780061





000
SAUS46 KLOX 241036
MTRMWS
METAR KMWS 241030Z 23500G00KT MM/03 RMK SNOW DEPTH  M





000
SAUS46 KLOX 241032
MTRSDB
SPECI KSDB 241030Z AUTO 20010G16KT 1/4SM FG VV002 08/06 A2992 RMK
AO2 T00780061





000
SAUS46 KLOX 241027
MTRSDB
SPECI KSDB 241025Z AUTO 23009KT 1/2SM FG VV002 08/06 A2992 RMK AO2
T00780061





000
SAUS46 KLOX 241017
MTRSDB
SPECI KSDB 241019Z AUTO 20010KT 1 1/4SM BR OVC002 07/06 A2992 RMK
AO2 T00720061





000
SAUS46 KLOX 241017
MTRSDB
SPECI KSDB 241019Z AUTO 20010KT 1 1/4SM BR OVC002 07/06 A2992 RMK
AO2 T00720061





000
SAUS46 KLOX 241015
MTRMWS
METAR KMWS 241000Z 24004G04KT 03/03 RMK SNOW DEPTH  M





000
SAUS46 KLOX 240955
MTR9L2
METAR K9L2 240955Z AUTO 22017G22KT 10SM CLR 11/06 A2981 RMK AO2 PK
WND 22026/0924 SLP089 T01110061 TSNO $





000
SAUS46 KLOX 240955
MTRSDB
METAR KSDB 240948Z AUTO 21010KT 7SM OVC002 08/06 A2992 RMK AO2
SLP099 T00780056





000
SAUS46 KLOX 240954
MTRMWS
METAR KMWS 240945Z 23006G07KT 03/03 RMK SNOW DEPTH  M





000
SAUS46 KLOX 240948
MTRCQT
METAR KCQT 240947Z AUTO 00000KT 10SM OVC046 15/11 A2992 RMK AO2
SLP131 T01500106





000
SAUS46 KLOX 240936
MTRMWS
METAR KMWS 240930Z 23500G00KT MM/04 RMK SNOW DEPTH  M





000
SAUS46 KLOX 240915
MTRMWS
METAR KMWS 240900Z 23504G05KT 03/03 RMK SNOW DEPTH  M





000
SAUS46 KLOX 240855
MTR9L2
METAR K9L2 240855Z AUTO 23016G24KT 10SM CLR 11/06 A2982 RMK AO2 PK
WND 23026/0844 SLP089 T01110061 58006 TSNO $





000
SAUS46 KLOX 240855
MTRSDB
METAR KSDB 240848Z AUTO 20011KT 10SM BKN004 OVC029 08/06 A2994 RMK
AO2 SLP104 T00780056 56002





000
SAUS46 KLOX 240855
MTR9L2
METAR K9L2 240855Z AUTO 23016G24KT 10SM CLR 11/06 A2982 RMK AO2 PK
WND 23026/0844 SLP089 T01110061 58006 TSNO $





000
SAUS46 KLOX 240854
MTRMWS
METAR KMWS 240845Z 23504G06KT 03/03 RMK SNOW DEPTH  M





000
SAUS46 KLOX 240848
MTRCQT
METAR KCQT 240847Z AUTO 00000KT 10SM OVC040 15/11 A2993 RMK AO2
SLP133 T01500106 58006





000
SAUS46 KLOX 240836
MTRMWS
METAR KMWS 240830Z 22003G04KT 04/04 RMK SNOW DEPTH  M





000
SAUS46 KLOX 240835
MTRSDB
SPECI KSDB 240834Z AUTO 21009KT 10SM BKN005 BKN021 OVC028 08/06
A2994 RMK AO2 T00780056





000
SAUS46 KLOX 240819
MTRSDB
SPECI KSDB 240817Z AUTO 19013KT 10SM SCT006 BKN020 BKN027 08/06
A2993 RMK AO2 T00780056





000
SAUS46 KLOX 240819
MTRSDB
SPECI KSDB 240817Z AUTO 19013KT 10SM SCT006 BKN020 BKN027 08/06
A2993 RMK AO2 T00780056





000
SAUS46 KLOX 240815
MTRMWS
METAR KMWS 240800Z 23500G00KT 03/04 RMK SNOW DEPTH  M





000
SAUS45 KLOX 240754
MTRCQT
METAR KCQT 240747Z AUTO 00000KT 10SM BKN044 15/11 A2994 RMK AO2
SLP136 T01500106 402060128





000
SAUS46 KLOX 240754
MTRMWS
METAR KMWS 240745Z 26001G02KT 03/03 RMK SNOW DEPTH  M





000
SAUS45 KLOX 240754
MTRCQT
METAR KCQT 240747Z AUTO 00000KT 10SM BKN044 15/11 A2994 RMK AO2
SLP136 T01500106 402060128





000
SAUS46 KLOX 240754
MTRMWS
METAR KMWS 240745Z 26001G02KT 03/03 RMK SNOW DEPTH  M





000
SAUS46 KLOX 240750
MTRSDB
METAR KSDB 240748Z AUTO 21013G17KT 10SM BKN005 08/06 A2994 RMK AO2
SLP105 T00780056 401670061





000
SAUS46 KLOX 240750
MTRSDB
METAR KSDB 240748Z AUTO 21013G17KT 10SM BKN005 08/06 A2994 RMK AO2
SLP105 T00780056 401670061





000
SAUS46 KLOX 240736
MTRMWS
METAR KMWS 240730Z 23500G00KT MM/04 RMK SNOW DEPTH  M





000
SAUS46 KLOX 240736
MTRMWS
METAR KMWS 240730Z 23500G00KT MM/04 RMK SNOW DEPTH  M





000
SAUS46 KLOX 240732
MTRSDB
SPECI KSDB 240730Z AUTO 17014KT 10SM SCT005 BKN020 BKN028 08/06
A2994 RMK AO2 T00780056





000
SAUS46 KLOX 240732
MTRSDB
SPECI KSDB 240730Z AUTO 17014KT 10SM SCT005 BKN020 BKN028 08/06
A2994 RMK AO2 T00780056





000
SAUS46 KLOX 240715
MTRMWS
METAR KMWS 240700Z 21503G04KT 04/04 RMK SNOW DEPTH  M





000
SAUS46 KLOX 240715
MTRMWS
METAR KMWS 240700Z 21503G04KT 04/04 RMK SNOW DEPTH  M





000
SAUS46 KLOX 240703
MTRSDB
SPECI KSDB 240701Z AUTO 21011KT 10SM BKN005 OVC020 08/06 A2994 RMK
AO2 T00780061





000
SAUS46 KLOX 240656
MTR9L2
METAR K9L2 240655Z AUTO 23017G23KT 10SM CLR 12/07 A2983 RMK AO2
SLP094 T01170067 TSNO $





000
SAUS46 KLOX 240654
MTRMWS
METAR KMWS 240645Z 24003G04KT 04/04 RMK SNOW DEPTH  M





000
SAUS46 KLOX 240654
MTRMWS
METAR KMWS 240645Z 24003G04KT 04/04 RMK SNOW DEPTH  M





000
SAUS46 KLOX 240651
MTRSDB
METAR KSDB 240648Z AUTO 20012G21KT 9SM BKN004 BKN020 08/06 A2994 RMK
AO2 CIG 002V007 SLP108 T00780061





000
SAUS46 KLOX 240651
MTRSDB
METAR KSDB 240648Z AUTO 20012G21KT 9SM BKN004 BKN020 08/06 A2994 RMK
AO2 CIG 002V007 SLP108 T00780061





000
SAUS46 KLOX 240649
MTRCQT
METAR KCQT 240647Z AUTO 00000KT 10SM OVC039 14/11 A2994 RMK AO2
SLP138 T01440106





000
SAUS46 KLOX 240636
MTRMWS
METAR KMWS 240630Z 23500G00KT MM/04 RMK SNOW DEPTH  M





000
SAUS46 KLOX 240636
MTRMWS
METAR KMWS 240630Z 23500G00KT MM/04 RMK SNOW DEPTH  M





000
SAUS46 KLOX 240615
MTRMWS
METAR KMWS 240600Z 21504G05KT 05/05 RMK SNOW DEPTH  M





000
SAUS46 KLOX 240615
MTRMWS
METAR KMWS 240600Z 21504G05KT 05/05 RMK SNOW DEPTH  M





000
SAUS46 KLOX 240605
MTRCQT
SPECI KCQT 240604Z AUTO VRB03KT 10SM SCT015 OVC037 15/11 A2994 RMK
AO2 T01500111





000
SAUS46 KLOX 240556
MTR9L2
METAR K9L2 240555Z AUTO 22016KT 10SM CLR 12/07 A2984 RMK AO2 SLP097
T01220067 10194 20122 51010 TSNO $





000
SAUS46 KLOX 240556
MTR9L2
METAR K9L2 240555Z AUTO 22016KT 10SM CLR 12/07 A2984 RMK AO2 SLP097
T01220067 10194 20122 51010 TSNO $





000
SAUS46 KLOX 240554
MTRMWS
METAR KMWS 240545Z 20505G06KT 05/05 RMK SNOW DEPTH  M





000
SAUS46 KLOX 240554
MTRMWS
METAR KMWS 240545Z 20505G06KT 05/05 RMK SNOW DEPTH  M





000
SAUS46 KLOX 240549
MTRSDB
METAR KSDB 240548Z AUTO 19011G20KT 6SM BR OVC002 08/06 A2994 RMK AO2
SLP112 T00780061 10133 20078 51009





000
SAUS46 KLOX 240549
MTRSDB
METAR KSDB 240548Z AUTO 19011G20KT 6SM BR OVC002 08/06 A2994 RMK AO2
SLP112 T00780061 10133 20078 51009





000
SAUS46 KLOX 240548
MTRCQT
METAR KCQT 240547Z AUTO 28003KT 10SM BKN015 OVC039 15/11 A2995 RMK
AO2 SLP139 T01500111 10178 20144 51017





000
SAUS46 KLOX 240548
MTRCQT
METAR KCQT 240547Z AUTO 28003KT 10SM BKN015 OVC039 15/11 A2995 RMK
AO2 SLP139 T01500111 10178 20144 51017





000
SAUS46 KLOX 240544
MTRCQT
SPECI KCQT 240543Z AUTO 27003KT 10SM BKN015 OVC039 15/11 A2995 RMK
AO2 T01500111





000
SAUS46 KLOX 240544
MTRCQT
SPECI KCQT 240543Z AUTO 27003KT 10SM BKN015 OVC039 15/11 A2995 RMK
AO2 T01500111





000
SAUS46 KLOX 240536
MTRMWS
METAR KMWS 240530Z 23500G00KT MM/05 RMK SNOW DEPTH  M





000
SAUS46 KLOX 240515
MTRMWS
METAR KMWS 240500Z 16003G06KT 03/04 RMK SNOW DEPTH  M





000
SAUS46 KLOX 240515
MTRMWS
METAR KMWS 240500Z 16003G06KT 03/04 RMK SNOW DEPTH  M





000
SAUS46 KLOX 240456
MTR9L2
METAR K9L2 240455Z AUTO 21013G19KT 10SM CLR 13/06 A2984 RMK AO2
SLP098 T01330061 TSNO $





000
SAUS46 KLOX 240456
MTR9L2
METAR K9L2 240455Z AUTO 21013G19KT 10SM CLR 13/06 A2984 RMK AO2
SLP098 T01330061 TSNO $





000
SAUS46 KLOX 240454
MTRMWS
METAR KMWS 240445Z 12503G05KT 03/04 RMK SNOW DEPTH  M





000
SAUS45 KLOX 240454
MTRCQT
METAR KCQT 240447Z AUTO 00000KT 10SM CLR 14/11 A2993 RMK AO2 SLP135
T01440111





000
SAUS45 KLOX 240454
MTRCQT
METAR KCQT 240447Z AUTO 00000KT 10SM CLR 14/11 A2993 RMK AO2 SLP135
T01440111





000
SAUS46 KLOX 240454
MTRMWS
METAR KMWS 240445Z 12503G05KT 03/04 RMK SNOW DEPTH  M





000
SAUS46 KLOX 240450
MTRSDB
METAR KSDB 240448Z AUTO 19015G21KT 7SM BKN004 08/06 A2994 RMK AO2
SLP115 T00780061





000
SAUS46 KLOX 240436
MTRMWS
METAR KMWS 240430Z 23500G00KT MM/04 RMK SNOW DEPTH  M





000
SAUS46 KLOX 240415
MTRSDB
SPECI KSDB 240413Z AUTO 20008G15KT 10SM FEW006 08/06 A2993 RMK AO2
T00830061





000
SAUS46 KLOX 240415
MTRMWS
METAR KMWS 240400Z 13003G04KT 03/04 RMK SNOW DEPTH  M





000
SAUS46 KLOX 240415
MTRSDB
SPECI KSDB 240413Z AUTO 20008G15KT 10SM FEW006 08/06 A2993 RMK AO2
T00830061





000
SAUS46 KLOX 240357
MTRMWS
METAR KMWS 240345Z 17003G04KT 03/04 RMK SNOW DEPTH  M





000
SAUS46 KLOX 240357
MTRMWS
METAR KMWS 240345Z 17003G04KT 03/04 RMK SNOW DEPTH  M





000
SAUS46 KLOX 240355
MTR9L2
METAR K9L2 240355Z AUTO 22015G21KT 10SM CLR 13/06 A2983 RMK AO2
SLP095 T01330061 TSNO $





000
SAUS46 KLOX 240350
MTRSDB
METAR KSDB 240348Z AUTO 20011KT 10SM CLR 08/06 A2993 RMK AO2 SLP111
T00830061





000
SAUS46 KLOX 240350
MTRCQT
METAR KCQT 240347Z AUTO 27004KT 10SM CLR 15/11 A2992 RMK AO2 SLP130
T01500111





000
SAUS46 KLOX 240350
MTRSDB
METAR KSDB 240348Z AUTO 20011KT 10SM CLR 08/06 A2993 RMK AO2 SLP111
T00830061





000
SAUS46 KLOX 240350
MTRCQT
METAR KCQT 240347Z AUTO 27004KT 10SM CLR 15/11 A2992 RMK AO2 SLP130
T01500111





000
SAUS46 KLOX 240336
MTRMWS
METAR KMWS 240330Z 23500G00KT MM/04 RMK SNOW DEPTH  M





000
SAUS46 KLOX 240315
MTRMWS
METAR KMWS 240300Z 23501G02KT 03/04 RMK SNOW DEPTH 1.00





000
SAUS46 KLOX 240255
MTR9L2
METAR K9L2 240255Z AUTO 21015G21KT 10SM CLR 14/06 A2981 RMK AO2 PK
WND 23028/0202 SLP088 T01440061 53008 TSNO $





000
SAUS46 KLOX 240254
MTRMWS
METAR KMWS 240245Z 15503G03KT 05/05 RMK SNOW DEPTH 1.00





000
SAUS46 KLOX 240254
MTRMWS
METAR KMWS 240245Z 15503G03KT 05/05 RMK SNOW DEPTH 1.00





000
SAUS46 KLOX 240250
MTRSDB
METAR KSDB 240248Z AUTO 19011KT 10SM FEW006 08/06 A2991 RMK AO2
SLP108 T00830061 53004





000
SAUS46 KLOX 240250
MTRSDB
METAR KSDB 240248Z AUTO 19011KT 10SM FEW006 08/06 A2991 RMK AO2
SLP108 T00830061 53004





000
SAUS46 KLOX 240250
MTRCQT
METAR KCQT 240247Z AUTO VRB04KT 10SM CLR 16/11 A2990 RMK AO2 SLP123
T01560106 53000





000
SAUS46 KLOX 240245
MTRSDB
SPECI KSDB 240243Z AUTO 20012KT 10SM SCT006 08/06 A2991 RMK AO2
T00830061





000
SAUS46 KLOX 240245
MTRSDB
SPECI KSDB 240243Z AUTO 20012KT 10SM SCT006 08/06 A2991 RMK AO2
T00830061





000
SAUS46 KLOX 240236
MTRMWS
METAR KMWS 240230Z 23500G00KT MM/04 RMK SNOW DEPTH 1.00





000
SAUS46 KLOX 240224
MTRSDB
SPECI KSDB 240222Z AUTO 19010KT 10SM BKN005 09/07 A2991 RMK AO2
T00890067





000
SAUS46 KLOX 240215
MTRMWS
METAR KMWS 240200Z 17501G02KT 06/06 RMK SNOW DEPTH 1.00





000
SAUS46 KLOX 240158
MTRSDB
SPECI KSDB 240156Z AUTO 19012KT 10SM SCT005 09/07 A2990 RMK AO2
T00940067





000
SAUS46 KLOX 240158
MTRSDB
SPECI KSDB 240156Z AUTO 19012KT 10SM SCT005 09/07 A2990 RMK AO2
T00940067





000
SAUS46 KLOX 240155
MTR9L2
METAR K9L2 240155Z AUTO 22021G27KT 10SM CLR 15/06 A2980 RMK AO2 PK
WND 22030/0100 SLP086 T01500061 TSNO $





000
SAUS46 KLOX 240154
MTRMWS
METAR KMWS 240145Z 17502G04KT 06/06 RMK SNOW DEPTH 1.00





000
SAUS46 KLOX 240154
MTRMWS
METAR KMWS 240145Z 17502G04KT 06/06 RMK SNOW DEPTH 1.00





000
SAUS46 KLOX 240150
MTRSDB
METAR KSDB 240148Z AUTO 20011G19KT 10SM BKN005 10/07 A2990 RMK AO2
SLP103 T01000067





000
SAUS46 KLOX 240150
MTRSDB
METAR KSDB 240148Z AUTO 20011G19KT 10SM BKN005 10/07 A2990 RMK AO2
SLP103 T01000067





000
SAUS46 KLOX 240149
MTRCQT
METAR KCQT 240147Z AUTO 27003KT 10SM CLR 17/11 A2988 RMK AO2 SLP117
T01670111





000
SAUS46 KLOX 240149
MTRCQT
METAR KCQT 240147Z AUTO 27003KT 10SM CLR 17/11 A2988 RMK AO2 SLP117
T01670111





000
SAUS46 KLOX 240136
MTRMWS
METAR KMWS 240130Z 20001G02KT 06/07 RMK SNOW DEPTH 1.00





000
SAUS46 KLOX 240136
MTRMWS
METAR KMWS 240130Z 20001G02KT 06/07 RMK SNOW DEPTH 1.00





000
SAUS46 KLOX 240115
MTRMWS
METAR KMWS 240100Z 24002G03KT 07/07 RMK SNOW DEPTH 1.00





000
SAUS46 KLOX 240111
MTRSDB
SPECI KSDB 240108Z AUTO 20012G20KT 10SM BKN007 BKN095 12/07 A2990
RMK AO2 T01170072





000
SAUS46 KLOX 240111
MTRSDB
SPECI KSDB 240108Z AUTO 20012G20KT 10SM BKN007 BKN095 12/07 A2990
RMK AO2 T01170072





000
SAUS46 KLOX 240054
MTRMWS
METAR KMWS 240045Z 25000G01KT 07/07 RMK SNOW DEPTH 1.00





000
SAUS46 KLOX 240054
MTRMWS
METAR KMWS 240045Z 25000G01KT 07/07 RMK SNOW DEPTH 1.00





000
SAUS46 KLOX 240050
MTRSDB
METAR KSDB 240048Z AUTO 18014G22KT 10SM FEW008 SCT100 13/07 A2990
RMK AO2 SLP097 T01280072





000
SAUS46 KLOX 240050
MTRSDB
METAR KSDB 240048Z AUTO 18014G22KT 10SM FEW008 SCT100 13/07 A2990
RMK AO2 SLP097 T01280072





000
SAUS46 KLOX 240049
MTRCQT
METAR KCQT 240047Z AUTO VRB03KT 10SM SCT065 17/11 A2988 RMK AO2
SLP118 T01720106





000
SAUS46 KLOX 240049
MTRCQT
METAR KCQT 240047Z AUTO VRB03KT 10SM SCT065 17/11 A2988 RMK AO2
SLP118 T01720106





000
SAUS46 KLOX 240038
MTRSDB
SPECI KSDB 240036Z AUTO 18013G20KT 10SM FEW008 SCT095 13/07 A2991
RMK AO2 T01280072





000
SAUS46 KLOX 240038
MTRSDB
SPECI KSDB 240036Z AUTO 18013G20KT 10SM FEW008 SCT095 13/07 A2991
RMK AO2 T01280072





000
SAUS46 KLOX 240036
MTRMWS
METAR KMWS 240030Z 23500G00KT MM/06 RMK SNOW DEPTH 1.00





    US Dept of Commerce
    National Oceanic and Atmospheric Administration
    National Weather Service
    1325 East West Highway
    Silver Spring, MD 20910
    Page Author: NWS Internet Services Team
Disclaimer
Information Quality
Credits
Glossary
Privacy Policy
Freedom of Information Act (FOIA)
About Us
Career Opportunities